PWSweather.com
Personal Weather Stations
Station Observations
SONYA
Sergiev PosadRU

Sergiev PosadRU

Lat: 56.28148651, Lon: 38.05462646

Elevation: 741

Station Type: Fine offset WH1091

High Low Average
Temperature 51.3°F10.7°C 42.6°F5.9°C 46.1°F7.8°C
Dew Point 46.2°F7.9°C 39.7°F4.3°C 42.8°F6.0°C
Winds 8.3 mph 13.4 kmh Calm Calm 3.0 mph ENE4.8 kmh ENE
Wind Gusts 13.6 mph21.9 kmh -- 5.0 mph8.0 kmh
Humidity 97% 66% 85%
Pressure 29.85 in1010.8 mb 29.51 in999.3 mb -
Precipitation 0.05 in1.3 mm - -
Hour Temp Dew Point Humidity Winds Wind Gusts Pressure Precip Precip Rate Daily Precip Total
12:02 AM 43.5°F6.4°C 40.0°F4.4°C 83% 0.7 mph S1.1 kmh S 2.2 mph3.5 kmh 29.84 in1010.5 mb 0.00 in0.0 mm 0.00 in0.0 mm 0.00 in0.0 mm
12:03 AM 43.5°F6.4°C 40.0°F4.4°C 83% 1.6 mph NE2.6 kmh NE 2.2 mph3.5 kmh 29.85 in1010.8 mb 0.00 in0.0 mm 0.00 in0.0 mm 0.00 in0.0 mm
12:08 AM 43.7°F6.5°C 40.2°F4.6°C 83% Calm Calm 1.6 mph2.6 kmh 29.85 in1010.8 mb 0.00 in0.0 mm 0.00 in0.0 mm 0.00 in0.0 mm
12:13 AM 43.7°F6.5°C 40.2°F4.6°C 83% 0.7 mph SE1.1 kmh SE 2.2 mph3.5 kmh 29.84 in1010.5 mb 0.00 in0.0 mm 0.00 in0.0 mm 0.00 in0.0 mm
12:17 AM 43.7°F6.5°C 40.2°F4.6°C 83% 0.7 mph 1.1 kmh 2.2 mph3.5 kmh 29.84 in1010.5 mb 0.00 in0.0 mm 0.00 in0.0 mm 0.00 in0.0 mm
12:18 AM 43.7°F6.5°C 40.2°F4.6°C 83% 2.2 mph NE3.5 kmh NE 3.8 mph6.1 kmh 29.84 in1010.5 mb 0.00 in0.0 mm 0.00 in0.0 mm 0.00 in0.0 mm
12:22 AM 43.7°F6.5°C 39.9°F4.4°C 82% 2.2 mph SE3.5 kmh SE 3.8 mph6.1 kmh 29.84 in1010.5 mb 0.00 in0.0 mm 0.00 in0.0 mm 0.00 in0.0 mm
12:23 AM 43.7°F6.5°C 39.9°F4.4°C 82% Calm Calm 1.6 mph2.6 kmh 29.84 in1010.5 mb 0.00 in0.0 mm 0.00 in0.0 mm 0.00 in0.0 mm
12:28 AM 43.9°F6.6°C 40.1°F4.5°C 82% 2.2 mph NE3.5 kmh NE 5.4 mph8.7 kmh 29.84 in1010.5 mb 0.00 in0.0 mm 0.00 in0.0 mm 0.00 in0.0 mm
12:33 AM 43.9°F6.6°C 40.1°F4.5°C 82% 2.2 mph SE3.5 kmh SE 3.8 mph6.1 kmh 29.84 in1010.5 mb 0.00 in0.0 mm 0.00 in0.0 mm 0.00 in0.0 mm
12:37 AM 43.9°F6.6°C 40.1°F4.5°C 82% 0.7 mph NE1.1 kmh NE 2.2 mph3.5 kmh 29.84 in1010.5 mb 0.00 in0.0 mm 0.00 in0.0 mm 0.00 in0.0 mm
12:38 AM 43.9°F6.6°C 40.1°F4.5°C 82% 0.7 mph E1.1 kmh E 2.2 mph3.5 kmh 29.84 in1010.5 mb 0.00 in0.0 mm 0.00 in0.0 mm 0.00 in0.0 mm
12:42 AM 43.9°F6.6°C 40.1°F4.5°C 82% 1.6 mph 2.6 kmh 3.1 mph5.0 kmh 29.84 in1010.5 mb 0.00 in0.0 mm 0.00 in0.0 mm 0.00 in0.0 mm
12:43 AM 43.7°F6.5°C 39.9°F4.4°C 82% 0.7 mph SE1.1 kmh SE 1.6 mph2.6 kmh 29.83 in1010.2 mb 0.00 in0.0 mm 0.00 in0.0 mm 0.00 in0.0 mm
12:48 AM 43.7°F6.5°C 39.9°F4.4°C 82% 0.7 mph NE1.1 kmh NE 2.2 mph3.5 kmh 29.84 in1010.5 mb 0.00 in0.0 mm 0.00 in0.0 mm 0.00 in0.0 mm
12:53 AM 43.7°F6.5°C 39.9°F4.4°C 82% 1.6 mph 2.6 kmh 2.2 mph3.5 kmh 29.83 in1010.2 mb 0.00 in0.0 mm 0.00 in0.0 mm 0.00 in0.0 mm
12:57 AM 43.7°F6.5°C 39.9°F4.4°C 82% 1.6 mph 2.6 kmh 3.1 mph5.0 kmh 29.83 in1010.2 mb 0.00 in0.0 mm 0.00 in0.0 mm 0.00 in0.0 mm
12:58 AM 43.7°F6.5°C 39.9°F4.4°C 82% 0.7 mph NE1.1 kmh NE 2.2 mph3.5 kmh 29.83 in1010.2 mb 0.00 in0.0 mm 0.00 in0.0 mm 0.00 in0.0 mm
01:02 AM 43.7°F6.5°C 39.9°F4.4°C 82% 2.2 mph E3.5 kmh E 3.8 mph6.1 kmh 29.84 in1010.5 mb 0.00 in0.0 mm 0.00 in0.0 mm 0.00 in0.0 mm
01:03 AM 43.7°F6.5°C 39.9°F4.4°C 82% 1.6 mph 2.6 kmh 2.2 mph3.5 kmh 29.83 in1010.2 mb 0.00 in0.0 mm 0.00 in0.0 mm 0.00 in0.0 mm
01:08 AM 43.7°F6.5°C 39.9°F4.4°C 82% Calm Calm 0.7 mph1.1 kmh 29.83 in1010.2 mb 0.00 in0.0 mm 0.00 in0.0 mm 0.00 in0.0 mm
01:13 AM 43.7°F6.5°C 39.9°F4.4°C 82% 1.6 mph 2.6 kmh 3.1 mph5.0 kmh 29.83 in1010.2 mb 0.00 in0.0 mm 0.00 in0.0 mm 0.00 in0.0 mm
01:17 AM 43.7°F6.5°C 39.9°F4.4°C 82% 0.7 mph E1.1 kmh E 2.2 mph3.5 kmh 29.83 in1010.2 mb 0.00 in0.0 mm 0.00 in0.0 mm 0.00 in0.0 mm
01:18 AM 43.7°F6.5°C 39.9°F4.4°C 82% 2.2 mph NE3.5 kmh NE 3.8 mph6.1 kmh 29.83 in1010.2 mb 0.00 in0.0 mm 0.00 in0.0 mm 0.00 in0.0 mm
01:22 AM 43.7°F6.5°C 39.9°F4.4°C 82% 0.7 mph E1.1 kmh E 3.1 mph5.0 kmh 29.83 in1010.2 mb 0.00 in0.0 mm 0.00 in0.0 mm 0.00 in0.0 mm
01:23 AM 43.7°F6.5°C 39.9°F4.4°C 82% 0.7 mph 1.1 kmh 2.2 mph3.5 kmh 29.83 in1010.2 mb 0.00 in0.0 mm 0.00 in0.0 mm 0.00 in0.0 mm
01:28 AM 43.7°F6.5°C 39.9°F4.4°C 82% 0.7 mph SW1.1 kmh SW 1.6 mph2.6 kmh 29.82 in1009.8 mb 0.00 in0.0 mm 0.00 in0.0 mm 0.00 in0.0 mm
01:33 AM 43.7°F6.5°C 39.9°F4.4°C 82% 1.6 mph 2.6 kmh 3.1 mph5.0 kmh 29.83 in1010.2 mb 0.00 in0.0 mm 0.00 in0.0 mm 0.00 in0.0 mm
01:37 AM 43.7°F6.5°C 39.9°F4.4°C 82% 3.8 mph NE6.1 kmh NE 5.4 mph8.7 kmh 29.83 in1010.2 mb 0.00 in0.0 mm 0.00 in0.0 mm 0.00 in0.0 mm
01:38 AM 43.7°F6.5°C 39.9°F4.4°C 82% 2.2 mph NW3.5 kmh NW 4.5 mph7.2 kmh 29.82 in1009.8 mb 0.00 in0.0 mm 0.00 in0.0 mm 0.00 in0.0 mm
01:42 AM 43.7°F6.5°C 40.2°F4.6°C 83% 2.2 mph E3.5 kmh E 5.4 mph8.7 kmh 29.83 in1010.2 mb 0.00 in0.0 mm 0.00 in0.0 mm 0.00 in0.0 mm
01:43 AM 43.7°F6.5°C 40.2°F4.6°C 83% 2.2 mph SE3.5 kmh SE 3.8 mph6.1 kmh 29.83 in1010.2 mb 0.00 in0.0 mm 0.00 in0.0 mm 0.00 in0.0 mm
01:48 AM 43.7°F6.5°C 40.2°F4.6°C 83% 2.2 mph 3.5 kmh 4.5 mph7.2 kmh 29.83 in1010.2 mb 0.00 in0.0 mm 0.00 in0.0 mm 0.00 in0.0 mm
01:53 AM 43.7°F6.5°C 40.2°F4.6°C 83% 0.7 mph E1.1 kmh E 1.6 mph2.6 kmh 29.83 in1010.2 mb 0.00 in0.0 mm 0.00 in0.0 mm 0.00 in0.0 mm
01:57 AM 43.7°F6.5°C 40.4°F4.7°C 84% 1.6 mph E2.6 kmh E 3.1 mph5.0 kmh 29.82 in1009.8 mb 0.00 in0.0 mm 0.00 in0.0 mm 0.00 in0.0 mm
01:58 AM 43.7°F6.5°C 40.2°F4.6°C 83% 1.6 mph E2.6 kmh E 3.1 mph5.0 kmh 29.82 in1009.8 mb 0.00 in0.0 mm 0.00 in0.0 mm 0.00 in0.0 mm
02:02 AM 43.7°F6.5°C 40.4°F4.7°C 84% 1.6 mph NE2.6 kmh NE 3.1 mph5.0 kmh 29.82 in1009.8 mb 0.00 in0.0 mm 0.00 in0.0 mm 0.00 in0.0 mm
02:03 AM 43.7°F6.5°C 40.4°F4.7°C 84% 4.5 mph NW7.2 kmh NW 6.0 mph9.7 kmh 29.82 in1009.8 mb 0.00 in0.0 mm 0.00 in0.0 mm 0.00 in0.0 mm
02:08 AM 43.9°F6.6°C 40.8°F4.9°C 85% 0.7 mph 1.1 kmh 1.6 mph2.6 kmh 29.82 in1009.8 mb 0.00 in0.0 mm 0.00 in0.0 mm 0.00 in0.0 mm
02:13 AM 43.9°F6.6°C 40.8°F4.9°C 85% 1.6 mph E2.6 kmh E 3.1 mph5.0 kmh 29.82 in1009.8 mb 0.00 in0.0 mm 0.00 in0.0 mm 0.00 in0.0 mm
02:17 AM 43.9°F6.6°C 40.8°F4.9°C 85% 2.2 mph NE3.5 kmh NE 4.5 mph7.2 kmh 29.82 in1009.8 mb 0.00 in0.0 mm 0.00 in0.0 mm 0.00 in0.0 mm
02:18 AM 43.9°F6.6°C 40.8°F4.9°C 85% 2.2 mph NE3.5 kmh NE 3.8 mph6.1 kmh 29.82 in1009.8 mb 0.00 in0.0 mm 0.00 in0.0 mm 0.00 in0.0 mm
02:22 AM 43.9°F6.6°C 40.8°F4.9°C 85% 1.6 mph NE2.6 kmh NE 3.1 mph5.0 kmh 29.82 in1009.8 mb 0.00 in0.0 mm 0.00 in0.0 mm 0.00 in0.0 mm
02:23 AM 43.9°F6.6°C 41.0°F5.0°C 86% 1.6 mph 2.6 kmh 3.1 mph5.0 kmh 29.82 in1009.8 mb 0.00 in0.0 mm 0.00 in0.0 mm 0.00 in0.0 mm
02:28 AM 43.7°F6.5°C 40.8°F4.9°C 86% 2.2 mph NE3.5 kmh NE 3.8 mph6.1 kmh 29.81 in1009.5 mb 0.00 in0.0 mm 0.00 in0.0 mm 0.00 in0.0 mm
02:33 AM 43.7°F6.5°C 41.0°F5.0°C 87% 3.1 mph NW5.0 kmh NW 4.5 mph7.2 kmh 29.81 in1009.5 mb 0.00 in0.0 mm 0.00 in0.0 mm 0.00 in0.0 mm
02:37 AM 43.9°F6.6°C 41.2°F5.1°C 87% 1.6 mph 2.6 kmh 3.1 mph5.0 kmh 29.81 in1009.5 mb 0.00 in0.0 mm 0.00 in0.0 mm 0.00 in0.0 mm
02:38 AM 43.7°F6.5°C 41.0°F5.0°C 87% 1.6 mph NE2.6 kmh NE 3.1 mph5.0 kmh 29.81 in1009.5 mb 0.00 in0.0 mm 0.00 in0.0 mm 0.00 in0.0 mm
02:42 AM 43.9°F6.6°C 41.2°F5.1°C 87% 1.6 mph NE2.6 kmh NE 2.2 mph3.5 kmh 29.81 in1009.5 mb 0.00 in0.0 mm 0.00 in0.0 mm 0.00 in0.0 mm
02:43 AM 43.9°F6.6°C 41.2°F5.1°C 87% 1.6 mph 2.6 kmh 3.8 mph6.1 kmh 29.80 in1009.1 mb 0.00 in0.0 mm 0.00 in0.0 mm 0.00 in0.0 mm
02:48 AM 43.9°F6.6°C 41.2°F5.1°C 87% 1.6 mph NE2.6 kmh NE 3.8 mph6.1 kmh 29.80 in1009.1 mb 0.00 in0.0 mm 0.00 in0.0 mm 0.00 in0.0 mm
02:53 AM 44.1°F6.7°C 41.4°F5.2°C 87% 2.2 mph NE3.5 kmh NE 3.1 mph5.0 kmh 29.80 in1009.1 mb 0.00 in0.0 mm 0.00 in0.0 mm 0.00 in0.0 mm
02:57 AM 43.9°F6.6°C 41.2°F5.1°C 87% 3.1 mph 5.0 kmh 3.8 mph6.1 kmh 29.80 in1009.1 mb 0.00 in0.0 mm 0.00 in0.0 mm 0.00 in0.0 mm
02:58 AM 43.9°F6.6°C 41.2°F5.1°C 87% 1.6 mph NE2.6 kmh NE 3.1 mph5.0 kmh 29.80 in1009.1 mb 0.00 in0.0 mm 0.00 in0.0 mm 0.00 in0.0 mm
03:02 AM 43.9°F6.6°C 41.2°F5.1°C 87% 2.2 mph 3.5 kmh 3.1 mph5.0 kmh 29.80 in1009.1 mb 0.00 in0.0 mm 0.00 in0.0 mm 0.00 in0.0 mm
03:03 AM 43.9°F6.6°C 41.2°F5.1°C 87% 3.1 mph NE5.0 kmh NE 3.8 mph6.1 kmh 29.80 in1009.1 mb 0.00 in0.0 mm 0.00 in0.0 mm 0.00 in0.0 mm
03:08 AM 43.7°F6.5°C 41.0°F5.0°C 87% 1.6 mph 2.6 kmh 3.1 mph5.0 kmh 29.80 in1009.1 mb 0.00 in0.0 mm 0.00 in0.0 mm 0.00 in0.0 mm
03:13 AM 43.7°F6.5°C 41.0°F5.0°C 87% 1.6 mph NW2.6 kmh NW 3.1 mph5.0 kmh 29.80 in1009.1 mb 0.00 in0.0 mm 0.00 in0.0 mm 0.00 in0.0 mm
03:17 AM 43.7°F6.5°C 41.0°F5.0°C 87% 0.7 mph NE1.1 kmh NE 2.2 mph3.5 kmh 29.79 in1008.8 mb 0.00 in0.0 mm 0.00 in0.0 mm 0.00 in0.0 mm
03:18 AM 43.7°F6.5°C 41.0°F5.0°C 87% 3.1 mph 5.0 kmh 3.8 mph6.1 kmh 29.79 in1008.8 mb 0.00 in0.0 mm 0.00 in0.0 mm 0.00 in0.0 mm
03:22 AM 43.5°F6.4°C 40.9°F4.9°C 87% 0.7 mph E1.1 kmh E 1.6 mph2.6 kmh 29.80 in1009.1 mb 0.00 in0.0 mm 0.00 in0.0 mm 0.00 in0.0 mm
03:23 AM 43.3°F6.3°C 40.7°F4.8°C 87% 0.7 mph SW1.1 kmh SW 3.1 mph5.0 kmh 29.80 in1009.1 mb 0.00 in0.0 mm 0.00 in0.0 mm 0.00 in0.0 mm
03:28 AM 43.3°F6.3°C 40.7°F4.8°C 87% 0.7 mph SE1.1 kmh SE 2.2 mph3.5 kmh 29.79 in1008.8 mb 0.00 in0.0 mm 0.00 in0.0 mm 0.00 in0.0 mm
03:33 AM 43.3°F6.3°C 40.7°F4.8°C 87% 0.7 mph NE1.1 kmh NE 1.6 mph2.6 kmh 29.79 in1008.8 mb 0.00 in0.0 mm 0.00 in0.0 mm 0.00 in0.0 mm
03:37 AM 43.3°F6.3°C 40.7°F4.8°C 87% 0.7 mph 1.1 kmh 2.2 mph3.5 kmh 29.79 in1008.8 mb 0.00 in0.0 mm 0.00 in0.0 mm 0.00 in0.0 mm
03:38 AM 43.3°F6.3°C 40.7°F4.8°C 87% 1.6 mph 2.6 kmh 2.2 mph3.5 kmh 29.79 in1008.8 mb 0.00 in0.0 mm 0.00 in0.0 mm 0.00 in0.0 mm
03:42 AM 43.3°F6.3°C 40.7°F4.8°C 87% 2.2 mph 3.5 kmh 3.8 mph6.1 kmh 29.79 in1008.8 mb 0.00 in0.0 mm 0.00 in0.0 mm 0.00 in0.0 mm
03:43 AM 43.3°F6.3°C 40.7°F4.8°C 87% 0.7 mph NE1.1 kmh NE 3.1 mph5.0 kmh 29.79 in1008.8 mb 0.00 in0.0 mm 0.00 in0.0 mm 0.00 in0.0 mm
03:48 AM 43.2°F6.2°C 40.5°F4.7°C 87% 1.6 mph 2.6 kmh 3.8 mph6.1 kmh 29.79 in1008.8 mb 0.00 in0.0 mm 0.00 in0.0 mm 0.00 in0.0 mm
03:53 AM 43.2°F6.2°C 40.5°F4.7°C 87% 1.6 mph NE2.6 kmh NE 3.1 mph5.0 kmh 29.78 in1008.5 mb 0.00 in0.0 mm 0.00 in0.0 mm 0.00 in0.0 mm
03:57 AM 43.2°F6.2°C 40.5°F4.7°C 87% 0.7 mph 1.1 kmh 2.2 mph3.5 kmh 29.78 in1008.5 mb 0.00 in0.0 mm 0.00 in0.0 mm 0.00 in0.0 mm
03:58 AM 43.2°F6.2°C 40.5°F4.7°C 87% 1.6 mph NE2.6 kmh NE 3.1 mph5.0 kmh 29.78 in1008.5 mb 0.00 in0.0 mm 0.00 in0.0 mm 0.00 in0.0 mm
04:02 AM 43.2°F6.2°C 40.5°F4.7°C 87% 1.6 mph NE2.6 kmh NE 3.1 mph5.0 kmh 29.79 in1008.8 mb 0.00 in0.0 mm 0.00 in0.0 mm 0.00 in0.0 mm
04:03 AM 43.2°F6.2°C 40.5°F4.7°C 87% 0.7 mph NE1.1 kmh NE 2.2 mph3.5 kmh 29.78 in1008.5 mb 0.00 in0.0 mm 0.00 in0.0 mm 0.00 in0.0 mm
04:08 AM 43.0°F6.1°C 40.3°F4.6°C 87% 1.6 mph NE2.6 kmh NE 3.1 mph5.0 kmh 29.78 in1008.5 mb 0.00 in0.0 mm 0.00 in0.0 mm 0.00 in0.0 mm
04:13 AM 43.0°F6.1°C 40.3°F4.6°C 87% 0.7 mph NE1.1 kmh NE 2.2 mph3.5 kmh 29.77 in1008.1 mb 0.00 in0.0 mm 0.00 in0.0 mm 0.00 in0.0 mm
04:17 AM 43.0°F6.1°C 40.3°F4.6°C 87% 1.6 mph NE2.6 kmh NE 3.8 mph6.1 kmh 29.77 in1008.1 mb 0.00 in0.0 mm 0.00 in0.0 mm 0.00 in0.0 mm
04:18 AM 43.0°F6.1°C 40.3°F4.6°C 87% Calm Calm -- 29.77 in1008.1 mb 0.00 in0.0 mm 0.00 in0.0 mm 0.00 in0.0 mm
04:22 AM 43.0°F6.1°C 40.3°F4.6°C 87% 3.1 mph NNE5.0 kmh NNE 4.5 mph7.2 kmh 29.77 in1008.1 mb 0.00 in0.0 mm 0.00 in0.0 mm 0.00 in0.0 mm
04:23 AM 43.0°F6.1°C 40.3°F4.6°C 87% 1.6 mph 2.6 kmh 3.1 mph5.0 kmh 29.77 in1008.1 mb 0.00 in0.0 mm 0.00 in0.0 mm 0.00 in0.0 mm
04:28 AM 43.0°F6.1°C 40.3°F4.6°C 87% 2.2 mph 3.5 kmh 3.8 mph6.1 kmh 29.76 in1007.8 mb 0.00 in0.0 mm 0.00 in0.0 mm 0.00 in0.0 mm
04:33 AM 43.0°F6.1°C 40.3°F4.6°C 87% 2.2 mph NE3.5 kmh NE 4.5 mph7.2 kmh 29.77 in1008.1 mb 0.00 in0.0 mm 0.00 in0.0 mm 0.00 in0.0 mm
04:37 AM 43.0°F6.1°C 40.3°F4.6°C 87% 1.6 mph NE2.6 kmh NE 2.2 mph3.5 kmh 29.76 in1007.8 mb 0.00 in0.0 mm 0.00 in0.0 mm 0.00 in0.0 mm
04:38 AM 43.0°F6.1°C 40.3°F4.6°C 87% 0.7 mph 1.1 kmh 2.2 mph3.5 kmh 29.76 in1007.8 mb 0.00 in0.0 mm 0.00 in0.0 mm 0.00 in0.0 mm
04:42 AM 43.0°F6.1°C 40.3°F4.6°C 87% 1.6 mph NE2.6 kmh NE 3.1 mph5.0 kmh 29.76 in1007.8 mb 0.00 in0.0 mm 0.00 in0.0 mm 0.00 in0.0 mm
04:43 AM 43.0°F6.1°C 40.3°F4.6°C 87% 3.1 mph E5.0 kmh E 5.4 mph8.7 kmh 29.77 in1008.1 mb 0.00 in0.0 mm 0.00 in0.0 mm 0.00 in0.0 mm
04:48 AM 43.0°F6.1°C 40.1°F4.5°C 86% 3.1 mph E5.0 kmh E 4.5 mph7.2 kmh 29.76 in1007.8 mb 0.00 in0.0 mm 0.00 in0.0 mm 0.00 in0.0 mm
04:53 AM 43.0°F6.1°C 40.1°F4.5°C 86% 2.2 mph 3.5 kmh 4.5 mph7.2 kmh 29.76 in1007.8 mb 0.00 in0.0 mm 0.00 in0.0 mm 0.00 in0.0 mm
04:57 AM 43.0°F6.1°C 40.1°F4.5°C 86% 2.2 mph E3.5 kmh E 5.4 mph8.7 kmh 29.76 in1007.8 mb 0.00 in0.0 mm 0.00 in0.0 mm 0.00 in0.0 mm
04:58 AM 43.0°F6.1°C 40.1°F4.5°C 86% 0.7 mph E1.1 kmh E 2.2 mph3.5 kmh 29.76 in1007.8 mb 0.00 in0.0 mm 0.00 in0.0 mm 0.00 in0.0 mm
05:02 AM 43.0°F6.1°C 39.9°F4.4°C 85% Calm Calm 0.7 mph1.1 kmh 29.75 in1007.5 mb 0.00 in0.0 mm 0.00 in0.0 mm 0.00 in0.0 mm
05:03 AM 43.0°F6.1°C 39.9°F4.4°C 85% 3.1 mph NE5.0 kmh NE 4.5 mph7.2 kmh 29.76 in1007.8 mb 0.00 in0.0 mm 0.00 in0.0 mm 0.00 in0.0 mm
05:08 AM 42.8°F6.0°C 39.7°F4.3°C 85% 3.8 mph 6.1 kmh 4.5 mph7.2 kmh 29.76 in1007.8 mb 0.00 in0.0 mm 0.00 in0.0 mm 0.00 in0.0 mm
05:13 AM 42.8°F6.0°C 39.7°F4.3°C 85% 0.7 mph NE1.1 kmh NE 2.2 mph3.5 kmh 29.76 in1007.8 mb 0.00 in0.0 mm 0.00 in0.0 mm 0.00 in0.0 mm
05:17 AM 42.8°F6.0°C 39.7°F4.3°C 85% 3.8 mph 6.1 kmh 6.0 mph9.7 kmh 29.75 in1007.5 mb 0.00 in0.0 mm 0.00 in0.0 mm 0.00 in0.0 mm
05:18 AM 42.8°F6.0°C 39.7°F4.3°C 85% 1.6 mph NE2.6 kmh NE 3.1 mph5.0 kmh 29.75 in1007.5 mb 0.00 in0.0 mm 0.00 in0.0 mm 0.00 in0.0 mm
05:22 AM 42.8°F6.0°C 39.7°F4.3°C 85% 2.2 mph NE3.5 kmh NE 3.8 mph6.1 kmh 29.75 in1007.5 mb 0.00 in0.0 mm 0.00 in0.0 mm 0.00 in0.0 mm
05:23 AM 42.8°F6.0°C 39.7°F4.3°C 85% Calm Calm 0.7 mph1.1 kmh 29.75 in1007.5 mb 0.00 in0.0 mm 0.00 in0.0 mm 0.00 in0.0 mm
05:28 AM 42.8°F6.0°C 39.7°F4.3°C 85% 0.7 mph E1.1 kmh E 2.2 mph3.5 kmh 29.75 in1007.5 mb 0.00 in0.0 mm 0.00 in0.0 mm 0.00 in0.0 mm
05:33 AM 42.8°F6.0°C 39.7°F4.3°C 85% 2.2 mph NE3.5 kmh NE 3.1 mph5.0 kmh 29.75 in1007.5 mb 0.00 in0.0 mm 0.00 in0.0 mm 0.00 in0.0 mm
05:37 AM 42.8°F6.0°C 39.7°F4.3°C 85% 2.2 mph 3.5 kmh 4.5 mph7.2 kmh 29.75 in1007.5 mb 0.00 in0.0 mm 0.00 in0.0 mm 0.00 in0.0 mm
05:38 AM 42.8°F6.0°C 39.7°F4.3°C 85% 2.2 mph NE3.5 kmh NE 3.1 mph5.0 kmh 29.75 in1007.5 mb 0.00 in0.0 mm 0.00 in0.0 mm 0.00 in0.0 mm
05:42 AM 42.8°F6.0°C 39.7°F4.3°C 85% 2.2 mph NE3.5 kmh NE 3.1 mph5.0 kmh 29.75 in1007.5 mb 0.00 in0.0 mm 0.00 in0.0 mm 0.00 in0.0 mm
05:43 AM 42.8°F6.0°C 39.7°F4.3°C 85% 0.7 mph 1.1 kmh 2.2 mph3.5 kmh 29.75 in1007.5 mb 0.00 in0.0 mm 0.00 in0.0 mm 0.00 in0.0 mm
05:48 AM 42.6°F5.9°C 39.8°F4.3°C 86% 3.1 mph NE5.0 kmh NE 5.4 mph8.7 kmh 29.74 in1007.1 mb 0.00 in0.0 mm 0.00 in0.0 mm 0.00 in0.0 mm
05:53 AM 42.6°F5.9°C 39.8°F4.3°C 86% 3.8 mph SE6.1 kmh SE 6.0 mph9.7 kmh 29.75 in1007.5 mb 0.00 in0.0 mm 0.00 in0.0 mm 0.00 in0.0 mm
05:57 AM 42.8°F6.0°C 39.7°F4.3°C 85% 3.1 mph NE5.0 kmh NE 5.4 mph8.7 kmh 29.75 in1007.5 mb 0.00 in0.0 mm 0.00 in0.0 mm 0.00 in0.0 mm
05:58 AM 42.6°F5.9°C 39.8°F4.3°C 86% 3.1 mph NE5.0 kmh NE 4.5 mph7.2 kmh 29.74 in1007.1 mb 0.00 in0.0 mm 0.00 in0.0 mm 0.00 in0.0 mm
06:02 AM 42.8°F6.0°C 39.7°F4.3°C 85% 2.2 mph 3.5 kmh 3.1 mph5.0 kmh 29.75 in1007.5 mb 0.00 in0.0 mm 0.00 in0.0 mm 0.00 in0.0 mm
06:03 AM 42.8°F6.0°C 39.7°F4.3°C 85% 4.5 mph NE7.2 kmh NE 6.0 mph9.7 kmh 29.75 in1007.5 mb 0.00 in0.0 mm 0.00 in0.0 mm 0.00 in0.0 mm
06:08 AM 42.6°F5.9°C 39.8°F4.3°C 86% 3.1 mph NE5.0 kmh NE 4.5 mph7.2 kmh 29.74 in1007.1 mb 0.00 in0.0 mm 0.00 in0.0 mm 0.00 in0.0 mm
06:13 AM 42.6°F5.9°C 40.0°F4.4°C 87% 1.6 mph WNW2.6 kmh WNW 3.8 mph6.1 kmh 29.74 in1007.1 mb 0.00 in0.0 mm 0.00 in0.0 mm 0.00 in0.0 mm
06:17 AM 42.6°F5.9°C 40.0°F4.4°C 87% 2.2 mph NE3.5 kmh NE 4.5 mph7.2 kmh 29.74 in1007.1 mb 0.00 in0.0 mm 0.00 in0.0 mm 0.00 in0.0 mm
06:18 AM 42.6°F5.9°C 40.0°F4.4°C 87% 3.8 mph NNE6.1 kmh NNE 6.9 mph11.1 kmh 29.74 in1007.1 mb 0.00 in0.0 mm 0.00 in0.0 mm 0.00 in0.0 mm
06:22 AM 42.6°F5.9°C 40.0°F4.4°C 87% 1.6 mph 2.6 kmh 3.1 mph5.0 kmh 29.74 in1007.1 mb 0.00 in0.0 mm 0.00 in0.0 mm 0.00 in0.0 mm
06:23 AM 42.6°F5.9°C 40.0°F4.4°C 87% 2.2 mph NE3.5 kmh NE 3.8 mph6.1 kmh 29.74 in1007.1 mb 0.00 in0.0 mm 0.00 in0.0 mm 0.00 in0.0 mm
06:28 AM 42.6°F5.9°C 40.0°F4.4°C 87% 3.1 mph NE5.0 kmh NE 4.5 mph7.2 kmh 29.74 in1007.1 mb 0.00 in0.0 mm 0.00 in0.0 mm 0.00 in0.0 mm
06:33 AM 42.6°F5.9°C 40.0°F4.4°C 87% 2.2 mph NE3.5 kmh NE 4.5 mph7.2 kmh 29.74 in1007.1 mb 0.00 in0.0 mm 0.00 in0.0 mm 0.00 in0.0 mm
06:37 AM 42.6°F5.9°C 40.0°F4.4°C 87% 3.1 mph E5.0 kmh E 6.0 mph9.7 kmh 29.73 in1006.8 mb 0.00 in0.0 mm 0.00 in0.0 mm 0.00 in0.0 mm
06:38 AM 42.6°F5.9°C 40.0°F4.4°C 87% 3.1 mph E5.0 kmh E 4.5 mph7.2 kmh 29.74 in1007.1 mb 0.00 in0.0 mm 0.00 in0.0 mm 0.00 in0.0 mm
06:42 AM 42.6°F5.9°C 40.0°F4.4°C 87% 3.8 mph NE6.1 kmh NE 6.9 mph11.1 kmh 29.73 in1006.8 mb 0.00 in0.0 mm 0.00 in0.0 mm 0.00 in0.0 mm
06:43 AM 42.6°F5.9°C 40.0°F4.4°C 87% 3.1 mph NE5.0 kmh NE 4.5 mph7.2 kmh 29.74 in1007.1 mb 0.00 in0.0 mm 0.00 in0.0 mm 0.00 in0.0 mm
06:48 AM 42.6°F5.9°C 40.0°F4.4°C 87% 3.1 mph NE5.0 kmh NE 4.5 mph7.2 kmh 29.73 in1006.8 mb 0.00 in0.0 mm 0.00 in0.0 mm 0.00 in0.0 mm
06:53 AM 42.6°F5.9°C 40.0°F4.4°C 87% 1.6 mph 2.6 kmh 3.1 mph5.0 kmh 29.73 in1006.8 mb 0.00 in0.0 mm 0.00 in0.0 mm 0.00 in0.0 mm
06:57 AM 42.6°F5.9°C 40.0°F4.4°C 87% 1.6 mph 2.6 kmh 3.1 mph5.0 kmh 29.73 in1006.8 mb 0.00 in0.0 mm 0.00 in0.0 mm 0.00 in0.0 mm
06:58 AM 42.6°F5.9°C 40.0°F4.4°C 87% 3.1 mph NE5.0 kmh NE 5.4 mph8.7 kmh 29.73 in1006.8 mb 0.00 in0.0 mm 0.00 in0.0 mm 0.00 in0.0 mm
07:02 AM 42.8°F6.0°C 39.9°F4.4°C 86% 2.2 mph NE3.5 kmh NE 4.5 mph7.2 kmh 29.73 in1006.8 mb 0.00 in0.0 mm 0.00 in0.0 mm 0.00 in0.0 mm
07:03 AM 42.8°F6.0°C 39.9°F4.4°C 86% 2.2 mph NE3.5 kmh NE 3.8 mph6.1 kmh 29.72 in1006.4 mb 0.00 in0.0 mm 0.00 in0.0 mm 0.00 in0.0 mm
07:08 AM 42.8°F6.0°C 39.9°F4.4°C 86% 4.5 mph NE7.2 kmh NE 5.4 mph8.7 kmh 29.72 in1006.4 mb 0.00 in0.0 mm 0.00 in0.0 mm 0.00 in0.0 mm
07:13 AM 42.8°F6.0°C 39.9°F4.4°C 86% 2.2 mph NE3.5 kmh NE 3.8 mph6.1 kmh 29.73 in1006.8 mb 0.00 in0.0 mm 0.00 in0.0 mm 0.00 in0.0 mm
07:17 AM 42.8°F6.0°C 39.9°F4.4°C 86% 3.8 mph NE6.1 kmh NE 4.5 mph7.2 kmh 29.72 in1006.4 mb 0.00 in0.0 mm 0.00 in0.0 mm 0.00 in0.0 mm
07:18 AM 42.8°F6.0°C 39.9°F4.4°C 86% 1.6 mph 2.6 kmh 3.1 mph5.0 kmh 29.72 in1006.4 mb 0.00 in0.0 mm 0.00 in0.0 mm 0.00 in0.0 mm
07:22 AM 42.8°F6.0°C 39.9°F4.4°C 86% 1.6 mph 2.6 kmh 2.2 mph3.5 kmh 29.72 in1006.4 mb 0.00 in0.0 mm 0.00 in0.0 mm 0.00 in0.0 mm
07:23 AM 42.8°F6.0°C 39.9°F4.4°C 86% 3.8 mph 6.1 kmh 5.4 mph8.7 kmh 29.72 in1006.4 mb 0.00 in0.0 mm 0.00 in0.0 mm 0.00 in0.0 mm
07:28 AM 43.0°F6.1°C 40.1°F4.5°C 86% 3.8 mph NE6.1 kmh NE 5.4 mph8.7 kmh 29.72 in1006.4 mb 0.00 in0.0 mm 0.00 in0.0 mm 0.00 in0.0 mm
07:33 AM 43.2°F6.2°C 40.3°F4.6°C 86% 2.2 mph 3.5 kmh 3.8 mph6.1 kmh 29.72 in1006.4 mb 0.00 in0.0 mm 0.00 in0.0 mm 0.00 in0.0 mm
07:37 AM 43.2°F6.2°C 40.3°F4.6°C 86% 2.2 mph NE3.5 kmh NE 3.8 mph6.1 kmh 29.72 in1006.4 mb 0.00 in0.0 mm 0.00 in0.0 mm 0.00 in0.0 mm
07:38 AM 43.2°F6.2°C 40.3°F4.6°C 86% 0.7 mph ESE1.1 kmh ESE 3.1 mph5.0 kmh 29.72 in1006.4 mb 0.00 in0.0 mm 0.00 in0.0 mm 0.00 in0.0 mm
07:42 AM 43.2°F6.2°C 40.3°F4.6°C 86% 2.2 mph E3.5 kmh E 3.8 mph6.1 kmh 29.72 in1006.4 mb 0.00 in0.0 mm 0.00 in0.0 mm 0.00 in0.0 mm
07:43 AM 43.2°F6.2°C 40.3°F4.6°C 86% 3.8 mph NE6.1 kmh NE 5.4 mph8.7 kmh 29.72 in1006.4 mb 0.00 in0.0 mm 0.00 in0.0 mm 0.00 in0.0 mm
07:48 AM 43.2°F6.2°C 40.1°F4.5°C 85% 4.5 mph NE7.2 kmh NE 6.0 mph9.7 kmh 29.72 in1006.4 mb 0.00 in0.0 mm 0.00 in0.0 mm 0.00 in0.0 mm
07:53 AM 43.3°F6.3°C 40.2°F4.6°C 85% 2.2 mph NE3.5 kmh NE 3.8 mph6.1 kmh 29.71 in1006.1 mb 0.00 in0.0 mm 0.00 in0.0 mm 0.00 in0.0 mm
07:57 AM 43.7°F6.5°C 40.6°F4.8°C 85% 5.4 mph 8.7 kmh 6.9 mph11.1 kmh 29.72 in1006.4 mb 0.00 in0.0 mm 0.00 in0.0 mm 0.00 in0.0 mm
07:58 AM 43.7°F6.5°C 40.6°F4.8°C 85% 3.8 mph NE6.1 kmh NE 6.0 mph9.7 kmh 29.71 in1006.1 mb 0.00 in0.0 mm 0.00 in0.0 mm 0.00 in0.0 mm
08:02 AM 43.9°F6.6°C 40.8°F4.9°C 85% 4.5 mph NE7.2 kmh NE 6.0 mph9.7 kmh 29.71 in1006.1 mb 0.00 in0.0 mm 0.00 in0.0 mm 0.00 in0.0 mm
08:03 AM 43.9°F6.6°C 40.8°F4.9°C 85% 3.1 mph 5.0 kmh 4.5 mph7.2 kmh 29.71 in1006.1 mb 0.00 in0.0 mm 0.00 in0.0 mm 0.00 in0.0 mm
08:08 AM 43.9°F6.6°C 40.6°F4.8°C 84% 3.1 mph NE5.0 kmh NE 5.4 mph8.7 kmh 29.71 in1006.1 mb 0.00 in0.0 mm 0.00 in0.0 mm 0.00 in0.0 mm
08:13 AM 44.1°F6.7°C 40.7°F4.8°C 84% 2.2 mph NE3.5 kmh NE 3.1 mph5.0 kmh 29.71 in1006.1 mb 0.00 in0.0 mm 0.00 in0.0 mm 0.00 in0.0 mm
08:17 AM 44.1°F6.7°C 40.7°F4.8°C 84% 3.8 mph NNE6.1 kmh NNE 4.5 mph7.2 kmh 29.71 in1006.1 mb 0.00 in0.0 mm 0.00 in0.0 mm 0.00 in0.0 mm
08:18 AM 44.1°F6.7°C 40.7°F4.8°C 84% 3.8 mph E6.1 kmh E 5.4 mph8.7 kmh 29.71 in1006.1 mb 0.00 in0.0 mm 0.00 in0.0 mm 0.00 in0.0 mm
08:22 AM 44.2°F6.8°C 40.9°F4.9°C 84% 3.8 mph E6.1 kmh E 6.9 mph11.1 kmh 29.71 in1006.1 mb 0.00 in0.0 mm 0.00 in0.0 mm 0.00 in0.0 mm
08:23 AM 44.2°F6.8°C 40.9°F4.9°C 84% 3.8 mph NE6.1 kmh NE 7.6 mph12.2 kmh 29.71 in1006.1 mb 0.00 in0.0 mm 0.00 in0.0 mm 0.00 in0.0 mm
08:28 AM 44.4°F6.9°C 41.1°F5.1°C 84% 3.8 mph NE6.1 kmh NE 4.5 mph7.2 kmh 29.70 in1005.8 mb 0.00 in0.0 mm 0.00 in0.0 mm 0.00 in0.0 mm
08:33 AM 44.6°F7.0°C 40.8°F4.9°C 82% 4.5 mph NE7.2 kmh NE 6.0 mph9.7 kmh 29.71 in1006.1 mb 0.00 in0.0 mm 0.00 in0.0 mm 0.00 in0.0 mm
08:37 AM 44.8°F7.1°C 41.0°F5.0°C 82% 4.5 mph E7.2 kmh E 7.6 mph12.2 kmh 29.71 in1006.1 mb 0.00 in0.0 mm 0.00 in0.0 mm 0.00 in0.0 mm
08:38 AM 44.8°F7.1°C 41.0°F5.0°C 82% 2.2 mph NE3.5 kmh NE 4.5 mph7.2 kmh 29.70 in1005.8 mb 0.00 in0.0 mm 0.00 in0.0 mm 0.00 in0.0 mm
08:42 AM 44.8°F7.1°C 41.0°F5.0°C 82% 6.0 mph 9.7 kmh 7.6 mph12.2 kmh 29.70 in1005.8 mb 0.00 in0.0 mm 0.00 in0.0 mm 0.00 in0.0 mm
08:43 AM 44.8°F7.1°C 41.0°F5.0°C 82% 3.8 mph 6.1 kmh 5.4 mph8.7 kmh 29.70 in1005.8 mb 0.00 in0.0 mm 0.00 in0.0 mm 0.00 in0.0 mm
08:48 AM 45.0°F7.2°C 40.9°F4.9°C 81% 3.8 mph E6.1 kmh E 5.4 mph8.7 kmh 29.70 in1005.8 mb 0.00 in0.0 mm 0.00 in0.0 mm 0.00 in0.0 mm
08:53 AM 45.1°F7.3°C 41.1°F5.1°C 81% 6.0 mph 9.7 kmh 7.6 mph12.2 kmh 29.70 in1005.8 mb 0.00 in0.0 mm 0.00 in0.0 mm 0.00 in0.0 mm
08:57 AM 45.1°F7.3°C 41.1°F5.1°C 81% 3.1 mph NE5.0 kmh NE 5.4 mph8.7 kmh 29.70 in1005.8 mb 0.00 in0.0 mm 0.00 in0.0 mm 0.00 in0.0 mm
08:58 AM 45.1°F7.3°C 41.1°F5.1°C 81% 3.1 mph 5.0 kmh 5.4 mph8.7 kmh 29.70 in1005.8 mb 0.00 in0.0 mm 0.00 in0.0 mm 0.00 in0.0 mm
09:02 AM 45.1°F7.3°C 41.1°F5.1°C 81% 4.5 mph NE7.2 kmh NE 6.9 mph11.1 kmh 29.70 in1005.8 mb 0.00 in0.0 mm 0.00 in0.0 mm 0.00 in0.0 mm
09:03 AM 45.1°F7.3°C 41.1°F5.1°C 81% 5.4 mph NE8.7 kmh NE 7.6 mph12.2 kmh 29.70 in1005.8 mb 0.00 in0.0 mm 0.00 in0.0 mm 0.00 in0.0 mm
09:08 AM 45.1°F7.3°C 40.9°F4.9°C 80% 4.5 mph WNW7.2 kmh WNW 7.6 mph12.2 kmh 29.70 in1005.8 mb 0.00 in0.0 mm 0.00 in0.0 mm 0.00 in0.0 mm
09:13 AM 45.1°F7.3°C 40.9°F4.9°C 80% 3.8 mph 6.1 kmh 5.4 mph8.7 kmh 29.69 in1005.4 mb 0.00 in0.0 mm 0.00 in0.0 mm 0.00 in0.0 mm
09:17 AM 45.3°F7.4°C 41.0°F5.0°C 80% 3.8 mph NE6.1 kmh NE 5.4 mph8.7 kmh 29.69 in1005.4 mb 0.00 in0.0 mm 0.00 in0.0 mm 0.00 in0.0 mm
09:18 AM 45.3°F7.4°C 41.0°F5.0°C 80% 2.2 mph 3.5 kmh 4.5 mph7.2 kmh 29.69 in1005.4 mb 0.00 in0.0 mm 0.00 in0.0 mm 0.00 in0.0 mm
09:22 AM 45.3°F7.4°C 41.0°F5.0°C 80% 3.1 mph NE5.0 kmh NE 6.9 mph11.1 kmh 29.69 in1005.4 mb 0.00 in0.0 mm 0.00 in0.0 mm 0.00 in0.0 mm
09:23 AM 45.3°F7.4°C 41.0°F5.0°C 80% 3.8 mph NE6.1 kmh NE 6.0 mph9.7 kmh 29.69 in1005.4 mb 0.00 in0.0 mm 0.00 in0.0 mm 0.00 in0.0 mm
09:28 AM 45.3°F7.4°C 41.0°F5.0°C 80% 6.0 mph NNW9.7 kmh NNW 9.8 mph15.8 kmh 29.69 in1005.4 mb 0.00 in0.0 mm 0.00 in0.0 mm 0.00 in0.0 mm
09:33 AM 45.3°F7.4°C 41.0°F5.0°C 80% 3.8 mph WNW6.1 kmh WNW 6.0 mph9.7 kmh 29.69 in1005.4 mb 0.00 in0.0 mm 0.00 in0.0 mm 0.00 in0.0 mm
09:37 AM 45.5°F7.5°C 41.2°F5.1°C 80% 3.8 mph NE6.1 kmh NE 6.9 mph11.1 kmh 29.69 in1005.4 mb 0.00 in0.0 mm 0.00 in0.0 mm 0.00 in0.0 mm
09:38 AM 45.5°F7.5°C 41.2°F5.1°C 80% 3.1 mph 5.0 kmh 5.4 mph8.7 kmh 29.69 in1005.4 mb 0.00 in0.0 mm 0.00 in0.0 mm 0.00 in0.0 mm
09:42 AM 45.7°F7.6°C 41.4°F5.2°C 80% 4.5 mph 7.2 kmh 6.0 mph9.7 kmh 29.68 in1005.1 mb 0.00 in0.0 mm 0.00 in0.0 mm 0.00 in0.0 mm
09:43 AM 45.7°F7.6°C 41.4°F5.2°C 80% 3.1 mph NE5.0 kmh NE 4.5 mph7.2 kmh 29.69 in1005.4 mb 0.00 in0.0 mm 0.00 in0.0 mm 0.00 in0.0 mm
09:48 AM 45.9°F7.7°C 41.6°F5.3°C 80% 3.8 mph NNE6.1 kmh NNE 6.0 mph9.7 kmh 29.68 in1005.1 mb 0.00 in0.0 mm 0.00 in0.0 mm 0.00 in0.0 mm
09:53 AM 46.0°F7.8°C 41.5°F5.3°C 79% 2.2 mph NE3.5 kmh NE 3.8 mph6.1 kmh 29.68 in1005.1 mb 0.00 in0.0 mm 0.00 in0.0 mm 0.00 in0.0 mm
09:57 AM 46.8°F8.2°C 42.2°F5.7°C 79% 4.5 mph NE7.2 kmh NE 7.6 mph12.2 kmh 29.68 in1005.1 mb 0.00 in0.0 mm 0.00 in0.0 mm 0.00 in0.0 mm
09:58 AM 46.4°F8.0°C 41.8°F5.4°C 79% 2.2 mph NE3.5 kmh NE 4.5 mph7.2 kmh 29.68 in1005.1 mb 0.00 in0.0 mm 0.00 in0.0 mm 0.00 in0.0 mm
10:02 AM 46.9°F8.3°C 42.1°F5.6°C 78% 5.4 mph E8.7 kmh E 8.3 mph13.4 kmh 29.68 in1005.1 mb 0.00 in0.0 mm 0.00 in0.0 mm 0.00 in0.0 mm
10:03 AM 46.9°F8.3°C 42.1°F5.6°C 78% 3.1 mph NE5.0 kmh NE 6.9 mph11.1 kmh 29.68 in1005.1 mb 0.00 in0.0 mm 0.00 in0.0 mm 0.00 in0.0 mm
10:08 AM 46.9°F8.3°C 41.9°F5.5°C 77% 3.8 mph NE6.1 kmh NE 6.0 mph9.7 kmh 29.68 in1005.1 mb 0.00 in0.0 mm 0.00 in0.0 mm 0.00 in0.0 mm
10:13 AM 47.3°F8.5°C 42.0°F5.6°C 76% 6.0 mph 9.7 kmh 8.3 mph13.4 kmh 29.68 in1005.1 mb 0.00 in0.0 mm 0.00 in0.0 mm 0.00 in0.0 mm
10:17 AM 47.3°F8.5°C 42.0°F5.6°C 76% 3.1 mph NNW5.0 kmh NNW 5.4 mph8.7 kmh 29.67 in1004.7 mb 0.00 in0.0 mm 0.00 in0.0 mm 0.00 in0.0 mm
10:18 AM 47.3°F8.5°C 42.0°F5.6°C 76% 3.8 mph NE6.1 kmh NE 5.4 mph8.7 kmh 29.67 in1004.7 mb 0.00 in0.0 mm 0.00 in0.0 mm 0.00 in0.0 mm
10:22 AM 47.7°F8.7°C 42.3°F5.7°C 76% 3.8 mph NE6.1 kmh NE 6.0 mph9.7 kmh 29.67 in1004.7 mb 0.00 in0.0 mm 0.00 in0.0 mm 0.00 in0.0 mm
10:23 AM 47.8°F8.8°C 42.2°F5.7°C 75% 4.5 mph NE7.2 kmh NE 8.3 mph13.4 kmh 29.68 in1005.1 mb 0.00 in0.0 mm 0.00 in0.0 mm 0.00 in0.0 mm
10:28 AM 48.0°F8.9°C 42.4°F5.8°C 75% 3.8 mph 6.1 kmh 6.0 mph9.7 kmh 29.68 in1005.1 mb 0.00 in0.0 mm 0.00 in0.0 mm 0.00 in0.0 mm
10:33 AM 48.0°F8.9°C 42.2°F5.7°C 74% 4.5 mph NE7.2 kmh NE 7.6 mph12.2 kmh 29.67 in1004.7 mb 0.00 in0.0 mm 0.00 in0.0 mm 0.00 in0.0 mm
10:37 AM 48.6°F9.2°C 42.4°F5.8°C 73% 5.4 mph NE8.7 kmh NE 7.6 mph12.2 kmh 29.67 in1004.7 mb 0.00 in0.0 mm 0.00 in0.0 mm 0.00 in0.0 mm
10:38 AM 48.4°F9.1°C 42.2°F5.7°C 73% 3.8 mph NE6.1 kmh NE 6.0 mph9.7 kmh 29.67 in1004.7 mb 0.00 in0.0 mm 0.00 in0.0 mm 0.00 in0.0 mm
10:42 AM 48.6°F9.2°C 42.1°F5.6°C 72% 5.4 mph NE8.7 kmh NE 9.8 mph15.8 kmh 29.67 in1004.7 mb 0.00 in0.0 mm 0.00 in0.0 mm 0.00 in0.0 mm
10:43 AM 48.7°F9.3°C 42.3°F5.7°C 72% 6.9 mph S11.1 kmh S 9.2 mph14.8 kmh 29.67 in1004.7 mb 0.00 in0.0 mm 0.00 in0.0 mm 0.00 in0.0 mm
10:48 AM 48.9°F9.4°C 42.2°F5.7°C 71% 3.1 mph NE5.0 kmh NE 4.5 mph7.2 kmh 29.66 in1004.4 mb 0.00 in0.0 mm 0.00 in0.0 mm 0.00 in0.0 mm
10:53 AM 49.1°F9.5°C 42.4°F5.8°C 71% 4.5 mph NE7.2 kmh NE 6.9 mph11.1 kmh 29.66 in1004.4 mb 0.00 in0.0 mm 0.00 in0.0 mm 0.00 in0.0 mm
10:57 AM 49.1°F9.5°C 42.4°F5.8°C 71% 7.6 mph E12.2 kmh E 10.7 mph17.2 kmh 29.66 in1004.4 mb 0.00 in0.0 mm 0.00 in0.0 mm 0.00 in0.0 mm
10:58 AM 49.1°F9.5°C 42.4°F5.8°C 71% 4.5 mph 7.2 kmh 8.3 mph13.4 kmh 29.65 in1004.1 mb 0.00 in0.0 mm 0.00 in0.0 mm 0.00 in0.0 mm
11:02 AM 49.1°F9.5°C 42.4°F5.8°C 71% 4.5 mph 7.2 kmh 7.6 mph12.2 kmh 29.65 in1004.1 mb 0.00 in0.0 mm 0.00 in0.0 mm 0.00 in0.0 mm
11:03 AM 49.3°F9.6°C 42.6°F5.9°C 71% 7.6 mph NE12.2 kmh NE 12.1 mph19.5 kmh 29.66 in1004.4 mb 0.00 in0.0 mm 0.00 in0.0 mm 0.00 in0.0 mm
11:08 AM 49.5°F9.7°C 42.7°F5.9°C 71% 8.3 mph 13.4 kmh 13.6 mph21.9 kmh 29.65 in1004.1 mb 0.00 in0.0 mm 0.00 in0.0 mm 0.00 in0.0 mm
11:13 AM 49.6°F9.8°C 42.6°F5.9°C 70% 4.5 mph NE7.2 kmh NE 8.3 mph13.4 kmh 29.65 in1004.1 mb 0.00 in0.0 mm 0.00 in0.0 mm 0.00 in0.0 mm
11:17 AM 50.2°F10.1°C 42.9°F6.1°C 69% 5.4 mph 8.7 kmh 9.2 mph14.8 kmh 29.65 in1004.1 mb 0.00 in0.0 mm 0.00 in0.0 mm 0.00 in0.0 mm
11:18 AM 49.8°F9.9°C 42.8°F6.0°C 70% 3.1 mph NE5.0 kmh NE 4.5 mph7.2 kmh 29.65 in1004.1 mb 0.00 in0.0 mm 0.00 in0.0 mm 0.00 in0.0 mm
11:22 AM 50.5°F10.3°C 42.9°F6.1°C 68% 5.4 mph 8.7 kmh 7.6 mph12.2 kmh 29.65 in1004.1 mb 0.00 in0.0 mm 0.00 in0.0 mm 0.00 in0.0 mm
11:23 AM 50.5°F10.3°C 42.7°F5.9°C 67% 4.5 mph NE7.2 kmh NE 8.3 mph13.4 kmh 29.65 in1004.1 mb 0.00 in0.0 mm 0.00 in0.0 mm 0.00 in0.0 mm
11:28 AM 50.7°F10.4°C 42.8°F6.0°C 67% 5.4 mph E8.7 kmh E 9.8 mph15.8 kmh 29.65 in1004.1 mb 0.00 in0.0 mm 0.00 in0.0 mm 0.00 in0.0 mm
11:33 AM 51.3°F10.7°C 43.6°F6.4°C 68% 7.6 mph NE12.2 kmh NE 11.4 mph18.3 kmh 29.65 in1004.1 mb 0.00 in0.0 mm 0.00 in0.0 mm 0.00 in0.0 mm
11:37 AM 51.1°F10.6°C 42.9°F6.1°C 66% 5.4 mph 8.7 kmh 8.3 mph13.4 kmh 29.65 in1004.1 mb 0.00 in0.0 mm 0.00 in0.0 mm 0.00 in0.0 mm
11:38 AM 51.3°F10.7°C 43.0°F6.1°C 66% 4.5 mph E7.2 kmh E 6.9 mph11.1 kmh 29.65 in1004.1 mb 0.00 in0.0 mm 0.00 in0.0 mm 0.00 in0.0 mm
11:42 AM 51.1°F10.6°C 43.2°F6.2°C 67% 3.1 mph SE5.0 kmh SE 6.0 mph9.7 kmh 29.64 in1003.7 mb 0.00 in0.0 mm 0.00 in0.0 mm 0.00 in0.0 mm
11:43 AM 51.1°F10.6°C 43.2°F6.2°C 67% 3.8 mph NE6.1 kmh NE 8.3 mph13.4 kmh 29.65 in1004.1 mb 0.00 in0.0 mm 0.00 in0.0 mm 0.00 in0.0 mm
11:48 AM 50.7°F10.4°C 42.8°F6.0°C 67% 3.8 mph NE6.1 kmh NE 6.9 mph11.1 kmh 29.65 in1004.1 mb 0.00 in0.0 mm 0.00 in0.0 mm 0.00 in0.0 mm
11:53 AM 50.7°F10.4°C 42.8°F6.0°C 67% 3.8 mph SW6.1 kmh SW 5.4 mph8.7 kmh 29.65 in1004.1 mb 0.00 in0.0 mm 0.00 in0.0 mm 0.00 in0.0 mm
11:57 AM 50.9°F10.5°C 43.3°F6.3°C 68% 3.1 mph E5.0 kmh E 4.5 mph7.2 kmh 29.65 in1004.1 mb 0.00 in0.0 mm 0.00 in0.0 mm 0.00 in0.0 mm
11:58 AM 50.7°F10.4°C 42.8°F6.0°C 67% 3.8 mph 6.1 kmh 4.5 mph7.2 kmh 29.65 in1004.1 mb 0.00 in0.0 mm 0.00 in0.0 mm 0.00 in0.0 mm
12:02 PM 50.9°F10.5°C 43.3°F6.3°C 68% 3.8 mph 6.1 kmh 7.6 mph12.2 kmh 29.65 in1004.1 mb 0.00 in0.0 mm 0.00 in0.0 mm 0.00 in0.0 mm
12:03 PM 50.9°F10.5°C 43.3°F6.3°C 68% 4.5 mph NE7.2 kmh NE 6.9 mph11.1 kmh 29.64 in1003.7 mb 0.00 in0.0 mm 0.00 in0.0 mm 0.00 in0.0 mm
12:08 PM 50.7°F10.4°C 42.8°F6.0°C 67% 2.2 mph 3.5 kmh 5.4 mph8.7 kmh 29.65 in1004.1 mb 0.00 in0.0 mm 0.00 in0.0 mm 0.00 in0.0 mm
12:13 PM 50.9°F10.5°C 43.3°F6.3°C 68% 3.8 mph 6.1 kmh 6.0 mph9.7 kmh 29.64 in1003.7 mb 0.00 in0.0 mm 0.00 in0.0 mm 0.00 in0.0 mm
12:17 PM 51.1°F10.6°C 43.5°F6.4°C 68% 4.5 mph S7.2 kmh S 7.6 mph12.2 kmh 29.64 in1003.7 mb 0.00 in0.0 mm 0.00 in0.0 mm 0.00 in0.0 mm
12:18 PM 50.9°F10.5°C 43.3°F6.3°C 68% 4.5 mph 7.2 kmh 7.6 mph12.2 kmh 29.64 in1003.7 mb 0.00 in0.0 mm 0.00 in0.0 mm 0.00 in0.0 mm
12:22 PM 51.1°F10.6°C 43.5°F6.4°C 68% 4.5 mph NE7.2 kmh NE 7.6 mph12.2 kmh 29.64 in1003.7 mb 0.00 in0.0 mm 0.00 in0.0 mm 0.00 in0.0 mm
12:23 PM 51.1°F10.6°C 43.5°F6.4°C 68% 3.8 mph NE6.1 kmh NE 6.0 mph9.7 kmh 29.65 in1004.1 mb 0.00 in0.0 mm 0.00 in0.0 mm 0.00 in0.0 mm
12:28 PM 50.9°F10.5°C 43.3°F6.3°C 68% 3.8 mph NE6.1 kmh NE 5.4 mph8.7 kmh 29.64 in1003.7 mb 0.00 in0.0 mm 0.00 in0.0 mm 0.00 in0.0 mm
12:33 PM 50.9°F10.5°C 43.3°F6.3°C 68% 3.8 mph NE6.1 kmh NE 6.0 mph9.7 kmh 29.64 in1003.7 mb 0.00 in0.0 mm 0.00 in0.0 mm 0.00 in0.0 mm
12:37 PM 50.7°F10.4°C 42.8°F6.0°C 67% 5.4 mph SE8.7 kmh SE 7.6 mph12.2 kmh 29.63 in1003.4 mb 0.00 in0.0 mm 0.00 in0.0 mm 0.00 in0.0 mm
12:38 PM 50.7°F10.4°C 42.8°F6.0°C 67% 3.8 mph NE6.1 kmh NE 6.0 mph9.7 kmh 29.64 in1003.7 mb 0.00 in0.0 mm 0.00 in0.0 mm 0.00 in0.0 mm
12:42 PM 50.9°F10.5°C 43.0°F6.1°C 67% 4.5 mph NE7.2 kmh NE 6.0 mph9.7 kmh 29.64 in1003.7 mb 0.00 in0.0 mm 0.00 in0.0 mm 0.00 in0.0 mm
12:43 PM 51.1°F10.6°C 43.5°F6.4°C 68% 2.2 mph NNE3.5 kmh NNE 4.5 mph7.2 kmh 29.64 in1003.7 mb 0.00 in0.0 mm 0.00 in0.0 mm 0.00 in0.0 mm
12:48 PM 51.3°F10.7°C 43.3°F6.3°C 67% 4.5 mph NE7.2 kmh NE 7.6 mph12.2 kmh 29.63 in1003.4 mb 0.00 in0.0 mm 0.00 in0.0 mm 0.00 in0.0 mm
12:53 PM 51.3°F10.7°C 43.6°F6.4°C 68% 3.8 mph 6.1 kmh 5.4 mph8.7 kmh 29.64 in1003.7 mb 0.00 in0.0 mm 0.00 in0.0 mm 0.00 in0.0 mm
12:57 PM 51.1°F10.6°C 42.9°F6.1°C 66% 2.2 mph NW3.5 kmh NW 6.0 mph9.7 kmh 29.63 in1003.4 mb 0.00 in0.0 mm 0.00 in0.0 mm 0.00 in0.0 mm
12:58 PM 51.3°F10.7°C 43.3°F6.3°C 67% 6.0 mph NE9.7 kmh NE 9.2 mph14.8 kmh 29.64 in1003.7 mb 0.00 in0.0 mm 0.00 in0.0 mm 0.00 in0.0 mm
01:02 PM 51.3°F10.7°C 43.3°F6.3°C 67% 5.4 mph 8.7 kmh 8.3 mph13.4 kmh 29.63 in1003.4 mb 0.00 in0.0 mm 0.00 in0.0 mm 0.00 in0.0 mm
01:03 PM 51.3°F10.7°C 43.3°F6.3°C 67% 3.1 mph E5.0 kmh E 4.5 mph7.2 kmh 29.63 in1003.4 mb 0.00 in0.0 mm 0.00 in0.0 mm 0.00 in0.0 mm
01:08 PM 51.3°F10.7°C 43.3°F6.3°C 67% 4.5 mph SE7.2 kmh SE 6.0 mph9.7 kmh 29.62 in1003.0 mb 0.00 in0.0 mm 0.00 in0.0 mm 0.00 in0.0 mm
01:13 PM 51.1°F10.6°C 43.2°F6.2°C 67% 4.5 mph E7.2 kmh E 6.9 mph11.1 kmh 29.63 in1003.4 mb 0.00 in0.0 mm 0.00 in0.0 mm 0.00 in0.0 mm
01:17 PM 50.9°F10.5°C 43.3°F6.3°C 68% 2.2 mph SW3.5 kmh SW 3.8 mph6.1 kmh 29.63 in1003.4 mb 0.00 in0.0 mm 0.00 in0.0 mm 0.00 in0.0 mm
01:18 PM 51.1°F10.6°C 43.5°F6.4°C 68% 5.4 mph E8.7 kmh E 7.6 mph12.2 kmh 29.62 in1003.0 mb 0.00 in0.0 mm 0.00 in0.0 mm 0.00 in0.0 mm
01:22 PM 50.7°F10.4°C 43.1°F6.2°C 68% 6.0 mph NE9.7 kmh NE 9.8 mph15.8 kmh 29.62 in1003.0 mb 0.00 in0.0 mm 0.00 in0.0 mm 0.00 in0.0 mm
01:23 PM 50.7°F10.4°C 43.1°F6.2°C 68% 6.0 mph 9.7 kmh 8.3 mph13.4 kmh 29.62 in1003.0 mb 0.00 in0.0 mm 0.00 in0.0 mm 0.00 in0.0 mm
01:28 PM 50.5°F10.3°C 43.2°F6.2°C 69% 3.1 mph NE5.0 kmh NE 5.4 mph8.7 kmh 29.62 in1003.0 mb 0.00 in0.0 mm 0.00 in0.0 mm 0.00 in0.0 mm
01:33 PM 50.5°F10.3°C 43.5°F6.4°C 70% 3.8 mph E6.1 kmh E 5.4 mph8.7 kmh 29.62 in1003.0 mb 0.00 in0.0 mm 0.00 in0.0 mm 0.00 in0.0 mm
01:37 PM 50.5°F10.3°C 43.5°F6.4°C 70% 3.1 mph 5.0 kmh 4.5 mph7.2 kmh 29.62 in1003.0 mb 0.00 in0.0 mm 0.00 in0.0 mm 0.00 in0.0 mm
01:38 PM 50.5°F10.3°C 43.5°F6.4°C 70% 6.0 mph 9.7 kmh 9.8 mph15.8 kmh 29.62 in1003.0 mb 0.00 in0.0 mm 0.00 in0.0 mm 0.00 in0.0 mm
01:42 PM 50.7°F10.4°C 43.7°F6.5°C 70% 3.8 mph 6.1 kmh 4.5 mph7.2 kmh 29.62 in1003.0 mb 0.00 in0.0 mm 0.00 in0.0 mm 0.00 in0.0 mm
01:43 PM 50.7°F10.4°C 43.7°F6.5°C 70% 2.2 mph NE3.5 kmh NE 3.8 mph6.1 kmh 29.62 in1003.0 mb 0.00 in0.0 mm 0.00 in0.0 mm 0.00 in0.0 mm
01:48 PM 50.7°F10.4°C 43.7°F6.5°C 70% 3.1 mph E5.0 kmh E 6.0 mph9.7 kmh 29.62 in1003.0 mb 0.00 in0.0 mm 0.00 in0.0 mm 0.00 in0.0 mm
01:53 PM 50.7°F10.4°C 43.7°F6.5°C 70% 3.1 mph E5.0 kmh E 4.5 mph7.2 kmh 29.62 in1003.0 mb 0.00 in0.0 mm 0.00 in0.0 mm 0.00 in0.0 mm
01:57 PM 50.9°F10.5°C 43.8°F6.6°C 70% 3.8 mph NE6.1 kmh NE 4.5 mph7.2 kmh 29.62 in1003.0 mb 0.00 in0.0 mm 0.00 in0.0 mm 0.00 in0.0 mm
01:58 PM 50.9°F10.5°C 43.8°F6.6°C 70% 3.1 mph NE5.0 kmh NE 4.5 mph7.2 kmh 29.62 in1003.0 mb 0.00 in0.0 mm 0.00 in0.0 mm 0.00 in0.0 mm
02:02 PM 50.9°F10.5°C 43.8°F6.6°C 70% 2.2 mph NE3.5 kmh NE 3.8 mph6.1 kmh 29.62 in1003.0 mb 0.00 in0.0 mm 0.00 in0.0 mm 0.00 in0.0 mm
02:03 PM 50.9°F10.5°C 43.8°F6.6°C 70% 3.1 mph NNE5.0 kmh NNE 4.5 mph7.2 kmh 29.61 in1002.7 mb 0.00 in0.0 mm 0.00 in0.0 mm 0.00 in0.0 mm
02:08 PM 50.9°F10.5°C 43.8°F6.6°C 70% 5.4 mph NE8.7 kmh NE 8.3 mph13.4 kmh 29.61 in1002.7 mb 0.00 in0.0 mm 0.00 in0.0 mm 0.00 in0.0 mm
02:13 PM 50.7°F10.4°C 43.7°F6.5°C 70% 5.4 mph NE8.7 kmh NE 7.6 mph12.2 kmh 29.61 in1002.7 mb 0.00 in0.0 mm 0.00 in0.0 mm 0.00 in0.0 mm
02:17 PM 50.7°F10.4°C 43.7°F6.5°C 70% 2.2 mph E3.5 kmh E 4.5 mph7.2 kmh 29.61 in1002.7 mb 0.00 in0.0 mm 0.00 in0.0 mm 0.00 in0.0 mm
02:18 PM 50.7°F10.4°C 43.7°F6.5°C 70% 6.0 mph E9.7 kmh E 9.2 mph14.8 kmh 29.60 in1002.4 mb 0.00 in0.0 mm 0.00 in0.0 mm 0.00 in0.0 mm
02:22 PM 50.7°F10.4°C 43.7°F6.5°C 70% 3.1 mph E5.0 kmh E 6.0 mph9.7 kmh 29.61 in1002.7 mb 0.00 in0.0 mm 0.00 in0.0 mm 0.00 in0.0 mm
02:23 PM 50.7°F10.4°C 43.7°F6.5°C 70% 3.8 mph NE6.1 kmh NE 6.0 mph9.7 kmh 29.61 in1002.7 mb 0.00 in0.0 mm 0.00 in0.0 mm 0.00 in0.0 mm
02:28 PM 50.7°F10.4°C 43.7°F6.5°C 70% 2.2 mph SE3.5 kmh SE 3.8 mph6.1 kmh 29.61 in1002.7 mb 0.00 in0.0 mm 0.00 in0.0 mm 0.00 in0.0 mm
02:33 PM 50.7°F10.4°C 43.7°F6.5°C 70% 3.1 mph NE5.0 kmh NE 4.5 mph7.2 kmh 29.62 in1003.0 mb 0.00 in0.0 mm 0.00 in0.0 mm 0.00 in0.0 mm
02:37 PM 50.5°F10.3°C 43.8°F6.6°C 71% 6.0 mph NE9.7 kmh NE 11.4 mph18.3 kmh 29.61 in1002.7 mb 0.00 in0.0 mm 0.00 in0.0 mm 0.00 in0.0 mm
02:38 PM 50.5°F10.3°C 43.5°F6.4°C 70% 3.8 mph NE6.1 kmh NE 5.4 mph8.7 kmh 29.61 in1002.7 mb 0.00 in0.0 mm 0.00 in0.0 mm 0.00 in0.0 mm
02:42 PM 50.4°F10.2°C 43.6°F6.4°C 71% 4.5 mph 7.2 kmh 6.9 mph11.1 kmh 29.62 in1003.0 mb 0.00 in0.0 mm 0.00 in0.0 mm 0.00 in0.0 mm
02:43 PM 50.4°F10.2°C 43.9°F6.6°C 72% 5.4 mph NE8.7 kmh NE 7.6 mph12.2 kmh 29.61 in1002.7 mb 0.00 in0.0 mm 0.00 in0.0 mm 0.00 in0.0 mm
02:48 PM 50.2°F10.1°C 43.7°F6.5°C 72% 5.4 mph E8.7 kmh E 10.7 mph17.2 kmh 29.61 in1002.7 mb 0.00 in0.0 mm 0.00 in0.0 mm 0.00 in0.0 mm
02:53 PM 50.0°F10.0°C 43.8°F6.6°C 73% 6.0 mph S9.7 kmh S 13.6 mph21.9 kmh 29.61 in1002.7 mb 0.00 in0.0 mm 0.00 in0.0 mm 0.00 in0.0 mm
02:57 PM 49.5°F9.7°C 44.3°F6.8°C 77% 5.4 mph NE8.7 kmh NE 7.6 mph12.2 kmh 29.61 in1002.7 mb 0.00 in0.0 mm 0.00 in0.0 mm 0.00 in0.0 mm
02:58 PM 49.8°F9.9°C 44.4°F6.9°C 76% 6.0 mph N9.7 kmh N 12.1 mph19.5 kmh 29.61 in1002.7 mb 0.00 in0.0 mm 0.00 in0.0 mm 0.00 in0.0 mm
03:02 PM 49.1°F9.5°C 44.2°F6.8°C 78% 3.1 mph 5.0 kmh 5.4 mph8.7 kmh 29.61 in1002.7 mb 0.00 in0.0 mm 0.00 in0.0 mm 0.00 in0.0 mm
03:03 PM 48.9°F9.4°C 44.3°F6.8°C 79% 4.5 mph NE7.2 kmh NE 8.3 mph13.4 kmh 29.61 in1002.7 mb 0.00 in0.0 mm 0.00 in0.0 mm 0.00 in0.0 mm
03:08 PM 48.6°F9.2°C 44.4°F6.9°C 81% 3.1 mph SE5.0 kmh SE 6.9 mph11.1 kmh 29.61 in1002.7 mb 0.00 in0.0 mm 0.00 in0.0 mm 0.00 in0.0 mm
03:13 PM 48.4°F9.1°C 44.2°F6.8°C 81% 4.5 mph NE7.2 kmh NE 8.3 mph13.4 kmh 29.61 in1002.7 mb 0.00 in0.0 mm 0.00 in0.0 mm 0.00 in0.0 mm
03:17 PM 48.0°F8.9°C 44.4°F6.9°C 83% 2.2 mph NE3.5 kmh NE 6.9 mph11.1 kmh 29.61 in1002.7 mb 0.00 in0.0 mm 0.00 in0.0 mm 0.00 in0.0 mm
03:18 PM 48.2°F9.0°C 44.3°F6.8°C 82% 3.8 mph E6.1 kmh E 6.0 mph9.7 kmh 29.61 in1002.7 mb 0.00 in0.0 mm 0.00 in0.0 mm 0.00 in0.0 mm
03:22 PM 47.8°F8.8°C 44.4°F6.9°C 84% 4.5 mph SE7.2 kmh SE 7.6 mph12.2 kmh 29.61 in1002.7 mb 0.00 in0.0 mm 0.00 in0.0 mm 0.00 in0.0 mm
03:23 PM 47.7°F8.7°C 44.2°F6.8°C 84% 3.8 mph NE6.1 kmh NE 5.4 mph8.7 kmh 29.61 in1002.7 mb 0.00 in0.0 mm 0.00 in0.0 mm 0.00 in0.0 mm
03:28 PM 47.3°F8.5°C 44.1°F6.7°C 85% 3.1 mph E5.0 kmh E 5.4 mph8.7 kmh 29.61 in1002.7 mb 0.00 in0.0 mm 0.00 in0.0 mm 0.00 in0.0 mm
03:33 PM 47.1°F8.4°C 44.2°F6.8°C 86% 3.8 mph E6.1 kmh E 6.9 mph11.1 kmh 29.60 in1002.4 mb 0.00 in0.0 mm 0.00 in0.0 mm 0.00 in0.0 mm
03:37 PM 46.9°F8.3°C 44.2°F6.8°C 87% 4.5 mph E7.2 kmh E 10.7 mph17.2 kmh 29.61 in1002.7 mb 0.00 in0.0 mm 0.00 in0.0 mm 0.00 in0.0 mm
03:38 PM 47.1°F8.4°C 44.4°F6.9°C 87% 2.2 mph NE3.5 kmh NE 3.8 mph6.1 kmh 29.61 in1002.7 mb 0.00 in0.0 mm 0.00 in0.0 mm 0.00 in0.0 mm
03:42 PM 46.9°F8.3°C 44.4°F6.9°C 88% 3.8 mph NNE6.1 kmh NNE 9.8 mph15.8 kmh 29.61 in1002.7 mb 0.00 in0.0 mm 0.00 in0.0 mm 0.00 in0.0 mm
03:43 PM 46.8°F8.2°C 44.3°F6.8°C 88% 3.8 mph NE6.1 kmh NE 5.4 mph8.7 kmh 29.61 in1002.7 mb 0.00 in0.0 mm 0.00 in0.0 mm 0.00 in0.0 mm
03:48 PM 46.8°F8.2°C 44.5°F6.9°C 89% 2.2 mph 3.5 kmh 4.5 mph7.2 kmh 29.61 in1002.7 mb 0.00 in0.0 mm 0.00 in0.0 mm 0.00 in0.0 mm
03:53 PM 46.6°F8.1°C 44.3°F6.8°C 89% 4.5 mph S7.2 kmh S 9.2 mph14.8 kmh 29.60 in1002.4 mb 0.00 in0.0 mm 0.00 in0.0 mm 0.00 in0.0 mm
03:57 PM 46.6°F8.1°C 44.5°F6.9°C 90% 4.5 mph SE7.2 kmh SE 6.9 mph11.1 kmh 29.60 in1002.4 mb 0.00 in0.0 mm 0.00 in0.0 mm 0.00 in0.0 mm
03:58 PM 46.6°F8.1°C 44.5°F6.9°C 90% 5.4 mph SE8.7 kmh SE 9.2 mph14.8 kmh 29.61 in1002.7 mb 0.00 in0.0 mm 0.00 in0.0 mm 0.00 in0.0 mm
04:02 PM 46.4°F8.0°C 44.3°F6.8°C 90% 3.8 mph NE6.1 kmh NE 6.9 mph11.1 kmh 29.61 in1002.7 mb 0.00 in0.0 mm 0.00 in0.0 mm 0.00 in0.0 mm
04:03 PM 46.4°F8.0°C 44.6°F7.0°C 91% 4.5 mph 7.2 kmh 7.6 mph12.2 kmh 29.60 in1002.4 mb 0.00 in0.0 mm 0.00 in0.0 mm 0.00 in0.0 mm
04:08 PM 46.4°F8.0°C 44.6°F7.0°C 91% 4.5 mph S7.2 kmh S 6.0 mph9.7 kmh 29.60 in1002.4 mb 0.00 in0.0 mm 0.00 in0.0 mm 0.00 in0.0 mm
04:13 PM 46.4°F8.0°C 44.6°F7.0°C 91% 4.5 mph 7.2 kmh 8.3 mph13.4 kmh 29.60 in1002.4 mb 0.00 in0.0 mm 0.00 in0.0 mm 0.00 in0.0 mm
04:17 PM 46.4°F8.0°C 44.8°F7.1°C 92% 2.2 mph E3.5 kmh E 4.5 mph7.2 kmh 29.60 in1002.4 mb 0.00 in0.0 mm 0.00 in0.0 mm 0.00 in0.0 mm
04:18 PM 46.4°F8.0°C 44.6°F7.0°C 91% 1.6 mph NE2.6 kmh NE 2.2 mph3.5 kmh 29.60 in1002.4 mb 0.00 in0.0 mm 0.00 in0.0 mm 0.00 in0.0 mm
04:22 PM 46.4°F8.0°C 44.8°F7.1°C 92% 3.8 mph NE6.1 kmh NE 6.0 mph9.7 kmh 29.60 in1002.4 mb 0.00 in0.0 mm 0.00 in0.0 mm 0.00 in0.0 mm
04:23 PM 46.2°F7.9°C 44.6°F7.0°C 92% 4.5 mph NE7.2 kmh NE 8.3 mph13.4 kmh 29.60 in1002.4 mb 0.00 in0.0 mm 0.00 in0.0 mm 0.00 in0.0 mm
04:28 PM 46.2°F7.9°C 44.6°F7.0°C 92% 3.8 mph SE6.1 kmh SE 5.4 mph8.7 kmh 29.60 in1002.4 mb 0.00 in0.0 mm 0.00 in0.0 mm 0.00 in0.0 mm
04:33 PM 46.2°F7.9°C 44.6°F7.0°C 92% 4.5 mph NE7.2 kmh NE 7.6 mph12.2 kmh 29.60 in1002.4 mb 0.00 in0.0 mm 0.00 in0.0 mm 0.00 in0.0 mm
04:37 PM 46.0°F7.8°C 44.4°F6.9°C 92% 3.8 mph NE6.1 kmh NE 6.9 mph11.1 kmh 29.60 in1002.4 mb 0.00 in0.0 mm 0.00 in0.0 mm 0.00 in0.0 mm
04:38 PM 46.2°F7.9°C 44.6°F7.0°C 92% 6.0 mph S9.7 kmh S 8.3 mph13.4 kmh 29.59 in1002.0 mb 0.00 in0.0 mm 0.00 in0.0 mm 0.00 in0.0 mm
04:42 PM 46.0°F7.8°C 44.6°F7.0°C 93% 2.2 mph E3.5 kmh E 3.8 mph6.1 kmh 29.60 in1002.4 mb 0.00 in0.0 mm 0.00 in0.0 mm 0.00 in0.0 mm
04:43 PM 46.0°F7.8°C 44.6°F7.0°C 93% 3.1 mph NE5.0 kmh NE 6.9 mph11.1 kmh 29.60 in1002.4 mb 0.00 in0.0 mm 0.00 in0.0 mm 0.00 in0.0 mm
04:48 PM 46.0°F7.8°C 44.6°F7.0°C 93% 4.5 mph SE7.2 kmh SE 7.6 mph12.2 kmh 29.59 in1002.0 mb 0.00 in0.0 mm 0.00 in0.0 mm 0.00 in0.0 mm
04:53 PM 46.0°F7.8°C 44.6°F7.0°C 93% 1.6 mph W2.6 kmh W 2.2 mph3.5 kmh 29.59 in1002.0 mb 0.00 in0.0 mm 0.00 in0.0 mm 0.00 in0.0 mm
04:57 PM 46.0°F7.8°C 44.6°F7.0°C 93% 1.6 mph S2.6 kmh S 4.5 mph7.2 kmh 29.60 in1002.4 mb 0.00 in0.0 mm 0.00 in0.0 mm 0.00 in0.0 mm
04:58 PM 46.0°F7.8°C 44.6°F7.0°C 93% 3.8 mph NE6.1 kmh NE 6.9 mph11.1 kmh 29.59 in1002.0 mb 0.00 in0.0 mm 0.00 in0.0 mm 0.00 in0.0 mm
05:02 PM 46.0°F7.8°C 44.8°F7.1°C 94% 0.7 mph 1.1 kmh 2.2 mph3.5 kmh 29.60 in1002.4 mb 0.00 in0.0 mm 0.00 in0.0 mm 0.00 in0.0 mm
05:03 PM 46.0°F7.8°C 44.8°F7.1°C 94% 3.8 mph SE6.1 kmh SE 7.6 mph12.2 kmh 29.60 in1002.4 mb 0.00 in0.0 mm 0.00 in0.0 mm 0.00 in0.0 mm
05:08 PM 46.0°F7.8°C 44.8°F7.1°C 94% 3.1 mph NE5.0 kmh NE 6.0 mph9.7 kmh 29.59 in1002.0 mb 0.00 in0.0 mm 0.00 in0.0 mm 0.00 in0.0 mm
05:13 PM 46.0°F7.8°C 44.8°F7.1°C 94% 6.9 mph E11.1 kmh E 9.8 mph15.8 kmh 29.59 in1002.0 mb 0.00 in0.0 mm 0.00 in0.0 mm 0.00 in0.0 mm
05:17 PM 46.0°F7.8°C 44.8°F7.1°C 94% 1.6 mph E2.6 kmh E 3.8 mph6.1 kmh 29.60 in1002.4 mb 0.00 in0.0 mm 0.00 in0.0 mm 0.00 in0.0 mm
05:18 PM 46.0°F7.8°C 44.8°F7.1°C 94% 3.1 mph S5.0 kmh S 6.0 mph9.7 kmh 29.60 in1002.4 mb 0.00 in0.0 mm 0.00 in0.0 mm 0.00 in0.0 mm
05:22 PM 46.0°F7.8°C 44.8°F7.1°C 94% 3.8 mph NE6.1 kmh NE 6.9 mph11.1 kmh 29.59 in1002.0 mb 0.00 in0.0 mm 0.00 in0.0 mm 0.00 in0.0 mm
05:23 PM 46.0°F7.8°C 45.0°F7.2°C 95% 4.5 mph E7.2 kmh E 8.3 mph13.4 kmh 29.59 in1002.0 mb 0.00 in0.0 mm 0.00 in0.0 mm 0.00 in0.0 mm
05:28 PM 46.0°F7.8°C 45.0°F7.2°C 95% 3.1 mph S5.0 kmh S 4.5 mph7.2 kmh 29.60 in1002.4 mb 0.00 in0.0 mm 0.00 in0.0 mm 0.00 in0.0 mm
05:33 PM 46.0°F7.8°C 45.0°F7.2°C 95% 3.1 mph NE5.0 kmh NE 5.4 mph8.7 kmh 29.59 in1002.0 mb 0.00 in0.0 mm 0.00 in0.0 mm 0.00 in0.0 mm
05:37 PM 46.0°F7.8°C 45.0°F7.2°C 95% 0.7 mph SE1.1 kmh SE 3.1 mph5.0 kmh 29.59 in1002.0 mb 0.00 in0.0 mm 0.00 in0.0 mm 0.00 in0.0 mm
05:38 PM 46.0°F7.8°C 45.0°F7.2°C 95% 1.6 mph NE2.6 kmh NE 3.1 mph5.0 kmh 29.59 in1002.0 mb 0.00 in0.0 mm 0.00 in0.0 mm 0.00 in0.0 mm
05:42 PM 46.0°F7.8°C 45.0°F7.2°C 95% 3.1 mph NE5.0 kmh NE 6.9 mph11.1 kmh 29.59 in1002.0 mb 0.00 in0.0 mm 0.00 in0.0 mm 0.00 in0.0 mm
05:43 PM 46.0°F7.8°C 45.0°F7.2°C 95% 2.2 mph 3.5 kmh 3.8 mph6.1 kmh 29.58 in1001.7 mb 0.00 in0.0 mm 0.00 in0.0 mm 0.00 in0.0 mm
05:48 PM 46.0°F7.8°C 45.0°F7.2°C 95% 3.1 mph SE5.0 kmh SE 3.8 mph6.1 kmh 29.59 in1002.0 mb 0.00 in0.0 mm 0.00 in0.0 mm 0.00 in0.0 mm
05:53 PM 46.0°F7.8°C 45.2°F7.3°C 96% 3.8 mph NE6.1 kmh NE 5.4 mph8.7 kmh 29.59 in1002.0 mb 0.00 in0.0 mm 0.00 in0.0 mm 0.00 in0.0 mm
05:57 PM 46.0°F7.8°C 45.2°F7.3°C 96% 3.1 mph NE5.0 kmh NE 6.0 mph9.7 kmh 29.58 in1001.7 mb 0.00 in0.0 mm 0.00 in0.0 mm 0.00 in0.0 mm
05:58 PM 46.0°F7.8°C 45.2°F7.3°C 96% 1.6 mph E2.6 kmh E 3.1 mph5.0 kmh 29.58 in1001.7 mb 0.00 in0.0 mm 0.00 in0.0 mm 0.00 in0.0 mm
06:02 PM 46.0°F7.8°C 45.2°F7.3°C 96% 2.2 mph W3.5 kmh W 5.4 mph8.7 kmh 29.58 in1001.7 mb 0.00 in0.0 mm 0.00 in0.0 mm 0.00 in0.0 mm
06:03 PM 46.0°F7.8°C 45.2°F7.3°C 96% 3.8 mph NE6.1 kmh NE 6.0 mph9.7 kmh 29.58 in1001.7 mb 0.00 in0.0 mm 0.00 in0.0 mm 0.00 in0.0 mm
06:08 PM 46.0°F7.8°C 45.2°F7.3°C 96% 4.5 mph E7.2 kmh E 6.0 mph9.7 kmh 29.58 in1001.7 mb 0.00 in0.0 mm 0.00 in0.0 mm 0.00 in0.0 mm
06:13 PM 46.0°F7.8°C 45.2°F7.3°C 96% 3.8 mph E6.1 kmh E 6.9 mph11.1 kmh 29.58 in1001.7 mb 0.00 in0.0 mm 0.00 in0.0 mm 0.00 in0.0 mm
06:17 PM 46.0°F7.8°C 45.2°F7.3°C 96% 1.6 mph E2.6 kmh E 5.4 mph8.7 kmh 29.58 in1001.7 mb 0.00 in0.0 mm 0.00 in0.0 mm 0.00 in0.0 mm
06:18 PM 46.0°F7.8°C 45.2°F7.3°C 96% 2.2 mph NE3.5 kmh NE 4.5 mph7.2 kmh 29.57 in1001.4 mb 0.00 in0.0 mm 0.00 in0.0 mm 0.00 in0.0 mm
06:22 PM 46.0°F7.8°C 45.2°F7.3°C 96% 2.2 mph ENE3.5 kmh ENE 6.0 mph9.7 kmh 29.58 in1001.7 mb 0.00 in0.0 mm 0.00 in0.0 mm 0.00 in0.0 mm
06:23 PM 46.0°F7.8°C 45.2°F7.3°C 96% 1.6 mph 2.6 kmh 5.4 mph8.7 kmh 29.57 in1001.4 mb 0.00 in0.0 mm 0.00 in0.0 mm 0.00 in0.0 mm
06:28 PM 46.0°F7.8°C 45.2°F7.3°C 96% 1.6 mph SE2.6 kmh SE 3.1 mph5.0 kmh 29.57 in1001.4 mb 0.00 in0.0 mm 0.00 in0.0 mm 0.00 in0.0 mm
06:33 PM 46.2°F7.9°C 45.4°F7.4°C 96% 0.7 mph NW1.1 kmh NW 3.1 mph5.0 kmh 29.58 in1001.7 mb 0.00 in0.0 mm 0.00 in0.0 mm 0.00 in0.0 mm
06:37 PM 46.2°F7.9°C 45.6°F7.6°C 97% 3.8 mph NE6.1 kmh NE 6.9 mph11.1 kmh 29.57 in1001.4 mb 0.00 in0.0 mm 0.00 in0.0 mm 0.00 in0.0 mm
06:38 PM 46.2°F7.9°C 45.4°F7.4°C 96% 2.2 mph E3.5 kmh E 5.4 mph8.7 kmh 29.57 in1001.4 mb 0.00 in0.0 mm 0.00 in0.0 mm 0.00 in0.0 mm
06:42 PM 46.2°F7.9°C 45.6°F7.6°C 97% 3.1 mph NE5.0 kmh NE 5.4 mph8.7 kmh 29.58 in1001.7 mb 0.00 in0.0 mm 0.00 in0.0 mm 0.00 in0.0 mm
06:43 PM 46.2°F7.9°C 45.6°F7.6°C 97% 2.2 mph E3.5 kmh E 3.8 mph6.1 kmh 29.58 in1001.7 mb 0.00 in0.0 mm 0.00 in0.0 mm 0.00 in0.0 mm
06:48 PM 46.2°F7.9°C 45.6°F7.6°C 97% 0.7 mph S1.1 kmh S 3.8 mph6.1 kmh 29.57 in1001.4 mb 0.00 in0.0 mm 0.00 in0.0 mm 0.00 in0.0 mm
06:53 PM 46.2°F7.9°C 45.6°F7.6°C 97% 3.8 mph NE6.1 kmh NE 5.4 mph8.7 kmh 29.57 in1001.4 mb 0.00 in0.0 mm 0.00 in0.0 mm 0.00 in0.0 mm
06:57 PM 46.2°F7.9°C 45.6°F7.6°C 97% 2.2 mph S3.5 kmh S 4.5 mph7.2 kmh 29.58 in1001.7 mb 0.00 in0.0 mm 0.00 in0.0 mm 0.00 in0.0 mm
06:58 PM 46.2°F7.9°C 45.6°F7.6°C 97% 1.6 mph NE2.6 kmh NE 3.1 mph5.0 kmh 29.58 in1001.7 mb 0.00 in0.0 mm 0.00 in0.0 mm 0.00 in0.0 mm
07:02 PM 46.2°F7.9°C 45.6°F7.6°C 97% 1.6 mph E2.6 kmh E 2.2 mph3.5 kmh 29.57 in1001.4 mb 0.00 in0.0 mm 0.00 in0.0 mm 0.00 in0.0 mm
07:03 PM 46.2°F7.9°C 45.6°F7.6°C 97% 0.7 mph SW1.1 kmh SW 3.1 mph5.0 kmh 29.57 in1001.4 mb 0.00 in0.0 mm 0.00 in0.0 mm 0.00 in0.0 mm
07:08 PM 46.2°F7.9°C 45.6°F7.6°C 97% 1.6 mph SE2.6 kmh SE 3.1 mph5.0 kmh 29.58 in1001.7 mb 0.00 in0.0 mm 0.00 in0.0 mm 0.00 in0.0 mm
07:13 PM 46.2°F7.9°C 45.6°F7.6°C 97% 0.7 mph NE1.1 kmh NE 2.2 mph3.5 kmh 29.57 in1001.4 mb 0.00 in0.0 mm 0.00 in0.0 mm 0.00 in0.0 mm
07:17 PM 46.2°F7.9°C 45.6°F7.6°C 97% 1.6 mph NE2.6 kmh NE 3.1 mph5.0 kmh 29.57 in1001.4 mb 0.00 in0.0 mm 0.00 in0.0 mm 0.00 in0.0 mm
07:18 PM 46.2°F7.9°C 45.6°F7.6°C 97% 0.7 mph E1.1 kmh E 2.2 mph3.5 kmh 29.57 in1001.4 mb 0.00 in0.0 mm 0.00 in0.0 mm 0.00 in0.0 mm
07:22 PM 46.2°F7.9°C 45.6°F7.6°C 97% 1.6 mph E2.6 kmh E 3.8 mph6.1 kmh 29.57 in1001.4 mb 0.00 in0.0 mm 0.00 in0.0 mm 0.00 in0.0 mm
07:23 PM 46.2°F7.9°C 45.6°F7.6°C 97% 1.6 mph SE2.6 kmh SE 4.5 mph7.2 kmh 29.57 in1001.4 mb 0.00 in0.0 mm 0.00 in0.0 mm 0.00 in0.0 mm
07:28 PM 46.2°F7.9°C 45.6°F7.6°C 97% 2.2 mph NE3.5 kmh NE 4.5 mph7.2 kmh 29.57 in1001.4 mb 0.00 in0.0 mm 0.00 in0.0 mm 0.00 in0.0 mm
07:33 PM 46.2°F7.9°C 45.6°F7.6°C 97% 1.6 mph NNE2.6 kmh NNE 3.8 mph6.1 kmh 29.57 in1001.4 mb 0.00 in0.0 mm 0.00 in0.0 mm 0.00 in0.0 mm
07:37 PM 46.2°F7.9°C 45.6°F7.6°C 97% 1.6 mph E2.6 kmh E 3.1 mph5.0 kmh 29.57 in1001.4 mb 0.00 in0.0 mm 0.00 in0.0 mm 0.00 in0.0 mm
07:38 PM 46.2°F7.9°C 45.6°F7.6°C 97% Calm Calm 1.6 mph2.6 kmh 29.57 in1001.4 mb 0.00 in0.0 mm 0.00 in0.0 mm 0.00 in0.0 mm
07:42 PM 46.2°F7.9°C 45.6°F7.6°C 97% 1.6 mph S2.6 kmh S 5.4 mph8.7 kmh 29.57 in1001.4 mb 0.00 in0.0 mm 0.00 in0.0 mm 0.00 in0.0 mm
07:43 PM 46.2°F7.9°C 45.6°F7.6°C 97% 2.2 mph SE3.5 kmh SE 3.8 mph6.1 kmh 29.57 in1001.4 mb 0.00 in0.0 mm 0.00 in0.0 mm 0.00 in0.0 mm
07:48 PM 46.2°F7.9°C 45.6°F7.6°C 97% 1.6 mph E2.6 kmh E 2.2 mph3.5 kmh 29.56 in1001.0 mb 0.00 in0.0 mm 0.00 in0.0 mm 0.00 in0.0 mm
07:53 PM 46.2°F7.9°C 45.6°F7.6°C 97% 0.7 mph NE1.1 kmh NE 3.8 mph6.1 kmh 29.57 in1001.4 mb 0.00 in0.0 mm 0.00 in0.0 mm 0.00 in0.0 mm
07:57 PM 46.2°F7.9°C 45.6°F7.6°C 97% 0.7 mph S1.1 kmh S 2.2 mph3.5 kmh 29.57 in1001.4 mb 0.00 in0.0 mm 0.00 in0.0 mm 0.00 in0.0 mm
07:58 PM 46.2°F7.9°C 45.6°F7.6°C 97% Calm Calm 3.8 mph6.1 kmh 29.57 in1001.4 mb 0.00 in0.0 mm 0.00 in0.0 mm 0.00 in0.0 mm
08:02 PM 46.2°F7.9°C 45.6°F7.6°C 97% 0.7 mph E1.1 kmh E 2.2 mph3.5 kmh 29.57 in1001.4 mb 0.00 in0.0 mm 0.00 in0.0 mm 0.00 in0.0 mm
08:03 PM 46.2°F7.9°C 45.6°F7.6°C 97% 2.2 mph SE3.5 kmh SE 4.5 mph7.2 kmh 29.57 in1001.4 mb 0.00 in0.0 mm 0.00 in0.0 mm 0.00 in0.0 mm
08:08 PM 46.2°F7.9°C 45.6°F7.6°C 97% Calm Calm 2.2 mph3.5 kmh 29.56 in1001.0 mb 0.00 in0.0 mm 0.00 in0.0 mm 0.00 in0.0 mm
08:13 PM 46.4°F8.0°C 45.6°F7.6°C 96% 2.2 mph NE3.5 kmh NE 5.4 mph8.7 kmh 29.56 in1001.0 mb 0.00 in0.0 mm 0.00 in0.0 mm 0.00 in0.0 mm
08:17 PM 46.4°F8.0°C 45.6°F7.6°C 96% 1.6 mph NE2.6 kmh NE 4.5 mph7.2 kmh 29.56 in1001.0 mb 0.00 in0.0 mm 0.00 in0.0 mm 0.00 in0.0 mm
08:18 PM 46.4°F8.0°C 45.6°F7.6°C 96% 1.6 mph NE2.6 kmh NE 3.1 mph5.0 kmh 29.56 in1001.0 mb 0.00 in0.0 mm 0.00 in0.0 mm 0.00 in0.0 mm
08:22 PM 46.4°F8.0°C 45.6°F7.6°C 96% 0.7 mph 1.1 kmh 3.8 mph6.1 kmh 29.56 in1001.0 mb 0.00 in0.0 mm 0.00 in0.0 mm 0.00 in0.0 mm
08:23 PM 46.4°F8.0°C 45.6°F7.6°C 96% 0.7 mph NE1.1 kmh NE 3.8 mph6.1 kmh 29.56 in1001.0 mb 0.00 in0.0 mm 0.00 in0.0 mm 0.00 in0.0 mm
08:28 PM 46.4°F8.0°C 45.6°F7.6°C 96% 1.6 mph NE2.6 kmh NE 3.8 mph6.1 kmh 29.56 in1001.0 mb 0.00 in0.0 mm 0.00 in0.0 mm 0.00 in0.0 mm
08:33 PM 46.4°F8.0°C 45.6°F7.6°C 96% 1.6 mph S2.6 kmh S 3.8 mph6.1 kmh 29.55 in1000.7 mb 0.00 in0.0 mm 0.00 in0.0 mm 0.00 in0.0 mm
08:37 PM 46.4°F8.0°C 45.6°F7.6°C 96% 2.2 mph E3.5 kmh E 3.8 mph6.1 kmh 29.56 in1001.0 mb 0.00 in0.0 mm 0.00 in0.0 mm 0.00 in0.0 mm
08:38 PM 46.4°F8.0°C 45.6°F7.6°C 96% 1.6 mph NE2.6 kmh NE 3.1 mph5.0 kmh 29.56 in1001.0 mb 0.00 in0.0 mm 0.00 in0.0 mm 0.00 in0.0 mm
08:42 PM 46.4°F8.0°C 45.6°F7.6°C 96% 3.1 mph NE5.0 kmh NE 5.4 mph8.7 kmh 29.55 in1000.7 mb 0.00 in0.0 mm 0.00 in0.0 mm 0.00 in0.0 mm
08:43 PM 46.4°F8.0°C 45.6°F7.6°C 96% 2.2 mph SE3.5 kmh SE 6.0 mph9.7 kmh 29.56 in1001.0 mb 0.00 in0.0 mm 0.00 in0.0 mm 0.00 in0.0 mm
08:48 PM 46.4°F8.0°C 45.6°F7.6°C 96% 0.7 mph SE1.1 kmh SE 1.6 mph2.6 kmh 29.56 in1001.0 mb 0.00 in0.0 mm 0.00 in0.0 mm 0.00 in0.0 mm
08:53 PM 46.4°F8.0°C 45.6°F7.6°C 96% 1.6 mph NE2.6 kmh NE 3.1 mph5.0 kmh 29.56 in1001.0 mb 0.01 in0.3 mm 0.14 in3.6 mm 0.01 in0.3 mm
08:57 PM 46.4°F8.0°C 45.6°F7.6°C 96% 2.2 mph NE3.5 kmh NE 6.9 mph11.1 kmh 29.55 in1000.7 mb 0.01 in0.3 mm 0.00 in0.0 mm 0.01 in0.3 mm
08:58 PM 46.4°F8.0°C 45.6°F7.6°C 96% 3.1 mph SE5.0 kmh SE 4.5 mph7.2 kmh 29.55 in1000.7 mb 0.01 in0.3 mm 0.00 in0.0 mm 0.01 in0.3 mm
09:02 PM 46.4°F8.0°C 45.6°F7.6°C 96% 1.6 mph E2.6 kmh E 3.1 mph5.0 kmh 29.55 in1000.7 mb 0.01 in0.3 mm 0.00 in0.0 mm 0.01 in0.3 mm
09:03 PM 46.4°F8.0°C 45.6°F7.6°C 96% 2.2 mph S3.5 kmh S 4.5 mph7.2 kmh 29.55 in1000.7 mb 0.01 in0.3 mm 0.00 in0.0 mm 0.01 in0.3 mm
09:08 PM 46.4°F8.0°C 45.6°F7.6°C 96% 1.6 mph SE2.6 kmh SE 2.2 mph3.5 kmh 29.55 in1000.7 mb 0.01 in0.3 mm 0.00 in0.0 mm 0.01 in0.3 mm
09:13 PM 46.4°F8.0°C 45.6°F7.6°C 96% 2.2 mph E3.5 kmh E 3.8 mph6.1 kmh 29.54 in1000.3 mb 0.01 in0.3 mm 0.00 in0.0 mm 0.01 in0.3 mm
09:17 PM 46.4°F8.0°C 45.6°F7.6°C 96% 3.1 mph SW5.0 kmh SW 4.5 mph7.2 kmh 29.54 in1000.3 mb 0.01 in0.3 mm 0.00 in0.0 mm 0.01 in0.3 mm
09:18 PM 46.4°F8.0°C 45.6°F7.6°C 96% 2.2 mph NE3.5 kmh NE 3.8 mph6.1 kmh 29.54 in1000.3 mb 0.01 in0.3 mm 0.00 in0.0 mm 0.01 in0.3 mm
09:22 PM 46.4°F8.0°C 45.6°F7.6°C 96% 1.6 mph S2.6 kmh S 3.8 mph6.1 kmh 29.55 in1000.7 mb 0.01 in0.3 mm 0.00 in0.0 mm 0.01 in0.3 mm
09:23 PM 46.4°F8.0°C 45.6°F7.6°C 96% 2.2 mph SE3.5 kmh SE 3.8 mph6.1 kmh 29.54 in1000.3 mb 0.01 in0.3 mm 0.00 in0.0 mm 0.01 in0.3 mm
09:28 PM 46.4°F8.0°C 45.6°F7.6°C 96% 3.1 mph E5.0 kmh E 4.5 mph7.2 kmh 29.54 in1000.3 mb 0.01 in0.3 mm 0.00 in0.0 mm 0.01 in0.3 mm
09:33 PM 46.4°F8.0°C 45.6°F7.6°C 96% 3.1 mph 5.0 kmh 5.4 mph8.7 kmh 29.54 in1000.3 mb 0.01 in0.3 mm 0.00 in0.0 mm 0.01 in0.3 mm
09:37 PM 46.6°F8.1°C 45.8°F7.7°C 96% 1.6 mph E2.6 kmh E 3.8 mph6.1 kmh 29.54 in1000.3 mb 0.01 in0.3 mm 0.00 in0.0 mm 0.01 in0.3 mm
09:38 PM 46.6°F8.1°C 45.8°F7.7°C 96% 2.2 mph 3.5 kmh 4.5 mph7.2 kmh 29.54 in1000.3 mb 0.01 in0.3 mm 0.00 in0.0 mm 0.01 in0.3 mm
09:42 PM 46.6°F8.1°C 45.8°F7.7°C 96% 2.2 mph SE3.5 kmh SE 4.5 mph7.2 kmh 29.54 in1000.3 mb 0.01 in0.3 mm 0.00 in0.0 mm 0.01 in0.3 mm
09:43 PM 46.6°F8.1°C 45.8°F7.7°C 96% 1.6 mph SE2.6 kmh SE 3.8 mph6.1 kmh 29.54 in1000.3 mb 0.01 in0.3 mm 0.00 in0.0 mm 0.01 in0.3 mm
09:48 PM 46.6°F8.1°C 45.8°F7.7°C 96% 1.6 mph NNE2.6 kmh NNE 3.1 mph5.0 kmh 29.54 in1000.3 mb 0.01 in0.3 mm 0.00 in0.0 mm 0.01 in0.3 mm
09:53 PM 46.6°F8.1°C 45.8°F7.7°C 96% 1.6 mph NE2.6 kmh NE 3.1 mph5.0 kmh 29.54 in1000.3 mb 0.00 in0.0 mm 0.00 in0.0 mm 0.01 in0.3 mm
09:57 PM 46.6°F8.1°C 45.8°F7.7°C 96% 2.2 mph E3.5 kmh E 5.4 mph8.7 kmh 29.54 in1000.3 mb 0.00 in0.0 mm 0.00 in0.0 mm 0.01 in0.3 mm
09:58 PM 46.6°F8.1°C 45.8°F7.7°C 96% 2.2 mph E3.5 kmh E 3.8 mph6.1 kmh 29.54 in1000.3 mb 0.00 in0.0 mm 0.00 in0.0 mm 0.01 in0.3 mm
10:02 PM 46.6°F8.1°C 45.8°F7.7°C 96% 3.8 mph SE6.1 kmh SE 6.0 mph9.7 kmh 29.53 in1000.0 mb 0.00 in0.0 mm 0.00 in0.0 mm 0.01 in0.3 mm
10:03 PM 46.6°F8.1°C 45.8°F7.7°C 96% 1.6 mph NE2.6 kmh NE 3.8 mph6.1 kmh 29.53 in1000.0 mb 0.00 in0.0 mm 0.00 in0.0 mm 0.01 in0.3 mm
10:08 PM 46.6°F8.1°C 45.8°F7.7°C 96% 1.6 mph E2.6 kmh E 3.1 mph5.0 kmh 29.54 in1000.3 mb 0.00 in0.0 mm 0.00 in0.0 mm 0.01 in0.3 mm
10:13 PM 46.6°F8.1°C 45.8°F7.7°C 96% 0.7 mph W1.1 kmh W 3.1 mph5.0 kmh 29.53 in1000.0 mb 0.01 in0.3 mm 0.14 in3.6 mm 0.02 in0.5 mm
10:17 PM 46.6°F8.1°C 45.8°F7.7°C 96% 1.6 mph SE2.6 kmh SE 4.5 mph7.2 kmh 29.53 in1000.0 mb 0.01 in0.3 mm 0.00 in0.0 mm 0.02 in0.5 mm
10:18 PM 46.6°F8.1°C 45.8°F7.7°C 96% 2.2 mph E3.5 kmh E 3.8 mph6.1 kmh 29.54 in1000.3 mb 0.01 in0.3 mm 0.00 in0.0 mm 0.02 in0.5 mm
10:22 PM 46.6°F8.1°C 45.8°F7.7°C 96% 1.6 mph E2.6 kmh E 3.1 mph5.0 kmh 29.53 in1000.0 mb 0.01 in0.3 mm 0.00 in0.0 mm 0.02 in0.5 mm
10:23 PM 46.6°F8.1°C 45.8°F7.7°C 96% 1.6 mph NNE2.6 kmh NNE 3.1 mph5.0 kmh 29.53 in1000.0 mb 0.01 in0.3 mm 0.00 in0.0 mm 0.02 in0.5 mm
10:28 PM 46.6°F8.1°C 45.8°F7.7°C 96% 0.7 mph E1.1 kmh E 4.5 mph7.2 kmh 29.53 in1000.0 mb 0.01 in0.3 mm 0.00 in0.0 mm 0.02 in0.5 mm
10:33 PM 46.6°F8.1°C 45.8°F7.7°C 96% 2.2 mph E3.5 kmh E 4.5 mph7.2 kmh 29.52 in999.7 mb 0.01 in0.3 mm 0.00 in0.0 mm 0.02 in0.5 mm
10:37 PM 46.6°F8.1°C 45.8°F7.7°C 96% 0.7 mph S1.1 kmh S 2.2 mph3.5 kmh 29.52 in999.7 mb 0.01 in0.3 mm 0.00 in0.0 mm 0.02 in0.5 mm
10:38 PM 46.6°F8.1°C 45.8°F7.7°C 96% 0.7 mph 1.1 kmh 2.2 mph3.5 kmh 29.53 in1000.0 mb 0.01 in0.3 mm 0.00 in0.0 mm 0.02 in0.5 mm
10:42 PM 46.6°F8.1°C 45.8°F7.7°C 96% 0.7 mph E1.1 kmh E 3.1 mph5.0 kmh 29.52 in999.7 mb 0.01 in0.3 mm 0.00 in0.0 mm 0.02 in0.5 mm
10:43 PM 46.6°F8.1°C 45.8°F7.7°C 96% 1.6 mph E2.6 kmh E 3.8 mph6.1 kmh 29.53 in1000.0 mb 0.01 in0.3 mm 0.00 in0.0 mm 0.02 in0.5 mm
10:48 PM 46.6°F8.1°C 45.8°F7.7°C 96% 1.6 mph NE2.6 kmh NE 2.2 mph3.5 kmh 29.52 in999.7 mb 0.02 in0.5 mm 0.14 in3.6 mm 0.04 in1.0 mm
10:53 PM 46.6°F8.1°C 45.8°F7.7°C 96% 1.6 mph WNW2.6 kmh WNW 3.1 mph5.0 kmh 29.53 in1000.0 mb 0.02 in0.5 mm 0.00 in0.0 mm 0.04 in1.0 mm
10:57 PM 46.6°F8.1°C 45.8°F7.7°C 96% 2.2 mph E3.5 kmh E 3.8 mph6.1 kmh 29.52 in999.7 mb 0.02 in0.5 mm 0.00 in0.0 mm 0.04 in1.0 mm
10:58 PM 46.6°F8.1°C 45.8°F7.7°C 96% 2.2 mph E3.5 kmh E 3.1 mph5.0 kmh 29.52 in999.7 mb 0.02 in0.5 mm 0.00 in0.0 mm 0.04 in1.0 mm
11:02 PM 46.6°F8.1°C 45.8°F7.7°C 96% 2.2 mph 3.5 kmh 3.8 mph6.1 kmh 29.52 in999.7 mb 0.02 in0.5 mm 0.00 in0.0 mm 0.04 in1.0 mm
11:03 PM 46.6°F8.1°C 45.8°F7.7°C 96% 1.6 mph E2.6 kmh E 3.1 mph5.0 kmh 29.52 in999.7 mb 0.02 in0.5 mm 0.00 in0.0 mm 0.04 in1.0 mm
11:08 PM 46.6°F8.1°C 46.0°F7.8°C 97% 1.6 mph NE2.6 kmh NE 2.2 mph3.5 kmh 29.52 in999.7 mb 0.02 in0.5 mm 0.00 in0.0 mm 0.04 in1.0 mm
11:13 PM 46.8°F8.2°C 46.2°F7.9°C 97% Calm Calm 0.7 mph1.1 kmh 29.52 in999.7 mb 0.01 in0.3 mm 0.00 in0.0 mm 0.04 in1.0 mm
11:17 PM 46.8°F8.2°C 46.2°F7.9°C 97% 0.7 mph NE1.1 kmh NE 3.1 mph5.0 kmh 29.51 in999.3 mb 0.01 in0.3 mm 0.00 in0.0 mm 0.04 in1.0 mm
11:18 PM 46.8°F8.2°C 46.2°F7.9°C 97% 4.5 mph NE7.2 kmh NE 6.9 mph11.1 kmh 29.52 in999.7 mb 0.01 in0.3 mm 0.00 in0.0 mm 0.04 in1.0 mm
11:22 PM 46.8°F8.2°C 46.2°F7.9°C 97% 1.6 mph SE2.6 kmh SE 2.2 mph3.5 kmh 29.52 in999.7 mb 0.01 in0.3 mm 0.00 in0.0 mm 0.04 in1.0 mm
11:23 PM 46.8°F8.2°C 46.2°F7.9°C 97% 1.6 mph E2.6 kmh E 3.1 mph5.0 kmh 29.52 in999.7 mb 0.01 in0.3 mm 0.00 in0.0 mm 0.04 in1.0 mm
11:28 PM 46.8°F8.2°C 46.2°F7.9°C 97% 1.6 mph NE2.6 kmh NE 3.1 mph5.0 kmh 29.52 in999.7 mb 0.01 in0.3 mm 0.00 in0.0 mm 0.04 in1.0 mm
11:33 PM 46.8°F8.2°C 46.2°F7.9°C 97% 2.2 mph E3.5 kmh E 3.8 mph6.1 kmh 29.52 in999.7 mb 0.01 in0.3 mm 0.00 in0.0 mm 0.04 in1.0 mm
11:37 PM 46.8°F8.2°C 46.2°F7.9°C 97% Calm Calm 1.6 mph2.6 kmh 29.52 in999.7 mb 0.01 in0.3 mm 0.00 in0.0 mm 0.04 in1.0 mm
11:38 PM 46.8°F8.2°C 46.2°F7.9°C 97% Calm Calm 0.7 mph1.1 kmh 29.51 in999.3 mb 0.01 in0.3 mm 0.00 in0.0 mm 0.04 in1.0 mm
11:42 PM 46.8°F8.2°C 46.2°F7.9°C 97% 0.7 mph 1.1 kmh 2.2 mph3.5 kmh 29.52 in999.7 mb 0.01 in0.3 mm 0.00 in0.0 mm 0.04 in1.0 mm
11:43 PM 46.8°F8.2°C 46.2°F7.9°C 97% 1.6 mph 2.6 kmh 3.1 mph5.0 kmh 29.51 in999.3 mb 0.01 in0.3 mm 0.00 in0.0 mm 0.04 in1.0 mm
11:48 PM 46.8°F8.2°C 46.2°F7.9°C 97% 2.2 mph NE3.5 kmh NE 3.8 mph6.1 kmh 29.51 in999.3 mb 0.01 in0.3 mm 0.00 in0.0 mm 0.05 in1.3 mm
11:53 PM 46.8°F8.2°C 46.2°F7.9°C 97% 2.2 mph SE3.5 kmh SE 4.5 mph7.2 kmh 29.51 in999.3 mb 0.01 in0.3 mm 0.00 in0.0 mm 0.05 in1.3 mm
11:57 PM 46.8°F8.2°C 46.2°F7.9°C 97% 2.2 mph E3.5 kmh E 3.1 mph5.0 kmh 29.51 in999.3 mb 0.01 in0.3 mm 0.00 in0.0 mm 0.05 in1.3 mm
11:58 PM 46.8°F8.2°C 46.2°F7.9°C 97% 1.6 mph 2.6 kmh 3.1 mph5.0 kmh 29.51 in999.3 mb 0.01 in0.3 mm 0.00 in0.0 mm 0.05 in1.3 mm